Darstellungsparameter: Aktuell verwendete Einstellungen:
Skalierung der Graphiken ... ?
xyx+y,   Skalierungsfaktor:      Skalierung: Modus: x, Faktor: 1
Darstellungszeitraum ... ?
Vom - - bis: - -   Zeitraum: 08.09.2013 - 07.09.2018
Min/Max/Avg-Anzeige ... ?
Zeige MMA aktuell
Zeige MMA Monat
Zeige MMA alles
Zeige --A aktuell
Zeige --A Monat
Zeige --A alles
Keine MMA-Anzeige
MMA:
Keine MMA-Graphiken
MMA-Basis: 08.09.2013 - 07.09.2018
Quicknavigation für Darstellung... ?
Tage:      1T, 2T, 3T, 5T -1T -2T -3T -5T +1T +2T +3T +5T
Wochen: 1W, 2W, 3W -1W -2W -3W +1W +2W +3W
Monate: 1M, 3M, 6M -1M -3M -6M +1M +3M +6M
Jahre:    1J, 3J, 5J, 10J -1J -3J -5J -10J +1J +3J +5J +10J
Nutze für die Darstellung ... ?
Originaldaten oder ...
Mittelwerte Minima Maxima auf...
Stundenbasis Tagesbasis Wochenbasis
Monatsbasis Jahresbasis      Datenbasis: Mittelwerte auf Tagesbasis
Darstellen als:
Statistik (Auto) Statistik J:M      Darstellung:
Zur Graphik,    zurück zur Übersicht aller Sensoren.
 
Tabellarische Datenbersicht: ?
 
Sensor: Nr:Datum:Temp:Feuchte:Taupunkt:
Aussen-T/F 1 08-09-2013 00:00:00 14.78542 C 93.9097 % 13.81 C
2 09-09-2013 00:00:00 14.16944 C 86.9965 % 12.04 C
3 10-09-2013 00:00:00 13.35073 C 82.4891 % 10.43 C
4 11-09-2013 00:00:00 13.00912 C 87.8066 % 11.04 C
5 12-09-2013 00:00:00 13.53472 C 92.7535 % 12.39 C
6 13-09-2013 00:00:00 14.67363 C 88.3553 % 12.77 C
7 14-09-2013 00:00:00 15.8191 C 93.1007 % 14.71 C
8 15-09-2013 00:00:00 14.41667 C 87.2500 % 12.33 C
9 16-09-2013 00:00:00 13.23333 C 81.3229 % 10.11 C
10 17-09-2013 00:00:00 10.58958 C 82.5833 % 7.75 C
11 18-09-2013 00:00:00 12.57951 C 92.8750 % 11.46 C
12 19-09-2013 00:00:00 11.89444 C 86.6076 % 9.73 C
13 20-09-2013 00:00:00 13.91806 C 85.7778 % 11.58 C
14 21-09-2013 00:00:00 12.20868 C 91.0000 % 10.78 C
15 22-09-2013 00:00:00 13.3788 C 90.7668 % 11.9 C
16 23-09-2013 00:00:00 15.46493 C 89.1076 % 13.68 C
17 24-09-2013 00:00:00 12.34792 C 94.6979 % 11.52 C
18 25-09-2013 00:00:00 14.08646 C 94.5347 % 13.22 C
19 26-09-2013 00:00:00 14.58924 C 91.1389 % 13.16 C
20 27-09-2013 00:00:00 11.25312 C 89.0660 % 9.52 C
21 28-09-2013 00:00:00 10.575 C 88.4286 % 8.74 C
22 29-09-2013 00:00:00 11.89028 C 85.1667 % 9.48 C
23 30-09-2013 00:00:00 9.80833 C 87.1910 % 7.78 C
24 01-10-2013 00:00:00 11.38264 C 80.5903 % 8.17 C
25 02-10-2013 00:00:00 9.01493 C 82.1111 % 6.13 C
Sensor: Nr:Datum:Temp:Feuchte:Taupunkt:
Aussen-T/F 26 03-10-2013 00:00:00 8.84479 C 80.9549 % 5.76 C
27 04-10-2013 00:00:00 11.33993 C 91.6215 % 10.03 C
28 05-10-2013 00:00:00 12.69583 C 97.5486 % 12.32 C
29 06-10-2013 00:00:00 13.60313 C 92.6910 % 12.44 C
30 07-10-2013 00:00:00 13.21667 C 94.6806 % 12.38 C
31 08-10-2013 00:00:00 13.44791 C 95.3505 % 12.72 C
32 09-10-2013 00:00:00 13.86667 C 91.5938 % 12.52 C
33 10-10-2013 00:00:00 8.4625 C 94.6285 % 7.65 C
34 11-10-2013 00:00:00 6.86042 C 97.1285 % 6.44 C
35 12-10-2013 00:00:00 6.31215 C 95.1910 % 5.6 C
36 13-10-2013 00:00:00 7.69167 C 90.0208 % 6.16 C
37 14-10-2013 00:00:00 9.89091 C 92.2182 % 8.69 C
38 15-10-2013 00:00:00 10.43275 C 94.2113 % 9.54 C
39 16-10-2013 00:00:00 10.04523 C 95.8799 % 9.42 C
40 17-10-2013 00:00:00 12.70972 C 88.6771 % 10.89 C
41 18-10-2013 00:00:00 11.80868 C 95.7083 % 11.15 C
42 19-10-2013 00:00:00 11.72702 C 95.4877 % 11.03 C
43 20-10-2013 00:00:00 15.28507 C 93.8021 % 14.29 C
44 21-10-2013 00:00:00 15.075 C 89.9861 % 13.45 C
45 22-10-2013 00:00:00 15.7614 C 91.7404 % 14.42 C
46 23-10-2013 00:00:00 15.81476 C 92.6790 % 14.63 C
47 24-10-2013 00:00:00 13.67431 C 95.5069 % 12.97 C
48 25-10-2013 00:00:00 13.01701 C 96.8958 % 12.54 C
49 26-10-2013 00:00:00 16.41144 C 95.1808 % 15.64 C
50 27-10-2013 00:00:00 14.94896 C 83.9028 % 12.25 C
Sensor: Nr:Datum:Temp:Feuchte:Taupunkt:
Aussen-T/F 51 28-10-2013 00:00:00 15.40962 C 78.1385 % 11.62 C
52 29-10-2013 00:00:00 11.12569 C 77.4901 % 7.34 C
53 30-10-2013 00:00:00 7.81825 C 86.6702 % 5.74 C
54 31-10-2013 00:00:00 5.27708 C 94.3854 % 4.45 C
55 01-11-2013 00:00:00 9.4316 C 89.5208 % 7.8 C
56 02-11-2013 00:00:00 12.79889 C 90.4354 % 11.27 C
57 03-11-2013 00:00:00 9.93611 C 83.6701 % 7.31 C
58 04-11-2013 00:00:00 9.80526 C 87.0912 % 7.76 C
59 05-11-2013 00:00:00 6.72153 C 87.5556 % 4.81 C
60 06-11-2013 00:00:00 10.70215 C 88.7348 % 8.92 C
61 07-11-2013 00:00:00 15.04132 C 84.5243 % 12.46 C
62 08-11-2013 00:00:00 11.92093 C 93.0372 % 10.83 C
63 09-11-2013 00:00:00 9.48785 C 80.9931 % 6.39 C
64 10-11-2013 00:00:00 6.68715 C 90.9653 % 5.32 C
65 11-11-2013 00:00:00 4.00764 C 96.3542 % 3.48 C
66 12-11-2013 00:00:00 4.41146 C 93.7951 % 3.5 C
67 13-11-2013 00:00:00 6.28491 C 93.5579 % 5.32 C
68 14-11-2013 00:00:00 3.2816 C 95.0833 % 2.57 C
69 15-11-2013 00:00:00 4.99201 C 90.5035 % 3.57 C
70 16-11-2013 00:00:00 3.05 C 91.8507 % 1.86 C
71 17-11-2013 00:00:00 3.2184 C 94.6285 % 2.44 C
72 18-11-2013 00:00:00 5.38287 C 94.0916 % 4.51 C
73 19-11-2013 00:00:00 6.22 C 91.5647 % 4.95 C
74 20-11-2013 00:00:00 3.96643 C 91.7483 % 2.75 C
75 21-11-2013 00:00:00 4.05603 C 89.4310 % 2.48 C
Sensor: Nr:Datum:Temp:Feuchte:Taupunkt:
Aussen-T/F 76 22-11-2013 00:00:00 4.42 C 86.5545 % 2.38 C
77 23-11-2013 00:00:00 7.03092 C 87.0000 % 5.02 C
78 24-11-2013 00:00:00 5.71435 C 88.4739 % 3.96 C
79 25-11-2013 00:00:00 2.65439 C 93.3216 % 1.69 C
80 26-11-2013 00:00:00 0.53125 C 94.5590 % -0.24 C
81 27-11-2013 00:00:00 0.63854 C 92.5035 % -0.43 C
82 28-11-2013 00:00:00 3.45709 C 94.3022 % 2.63 C
83 29-11-2013 00:00:00 5.6434 C 91.5833 % 4.38 C
84 30-11-2013 00:00:00 4.32604 C 93.7951 % 3.42 C
85 01-12-2013 00:00:00 5.01254 C 94.7178 % 4.24 C
86 02-12-2013 00:00:00 4.76458 C 93.0486 % 3.74 C
87 03-12-2013 00:00:00 -0.45729 C 97.1806 % -0.85 C
88 04-12-2013 00:00:00 3.27917 C 91.8924 % 2.09 C
89 05-12-2013 00:00:00 3.93475 C 87.9291 % 2.12 C
90 06-12-2013 00:00:00 3.76181 C 74.9583 % -0.26 C
91 07-12-2013 00:00:00 4.38715 C 85.8194 % 2.23 C
92 08-12-2013 00:00:00 6.92188 C 87.3785 % 4.97 C
93 09-12-2013 00:00:00 6.42222 C 84.1806 % 3.95 C
94 10-12-2013 00:00:00 3.24896 C 95.9236 % 2.66 C
95 11-12-2013 00:00:00 3.72465 C 96.5903 % 3.23 C
96 12-12-2013 00:00:00 4.08993 C 92.2118 % 2.94 C
97 13-12-2013 00:00:00 2.65694 C 90.5313 % 1.27 C
98 14-12-2013 00:00:00 3.58986 C 92.6923 % 2.52 C
99 15-12-2013 00:00:00 4.99688 C 85.9340 % 2.84 C
100 16-12-2013 00:00:00 1.49676 C 94.6511 % 0.73 C
Sensor: Nr:Datum:Temp:Feuchte:Taupunkt:
Aussen-T/F 101 17-12-2013 00:00:00 1.25451 C 95.3924 % 0.6 C
102 18-12-2013 00:00:00 4.19965 C 94.2153 % 3.35 C
103 19-12-2013 00:00:00 8.13715 C 88.2813 % 6.32 C
104 20-12-2013 00:00:00 4.38403 C 92.2708 % 3.24 C
105 21-12-2013 00:00:00 4.81354 C 81.8229 % 1.98 C
106 22-12-2013 00:00:00 8.81493 C 82.7222 % 6.04 C
107 23-12-2013 00:00:00 8.42341 C 85.6230 % 6.16 C
108 24-12-2013 00:00:00 11.57579 C 73.6140 % 7.03 C
109 25-12-2013 00:00:00 8.41944 C 92.4444 % 7.27 C
110 26-12-2013 00:00:00 6.06579 C 94.8195 % 5.3 C
111 27-12-2013 00:00:00 6.6549 C 85.1608 % 4.34 C
112 28-12-2013 00:00:00 9.14444 C 90.1181 % 7.61 C
113 29-12-2013 00:00:00 4.76463 C 93.9695 % 3.88 C
114 30-12-2013 00:00:00 4.17107 C 89.7934 % 2.65 C
115 31-12-2013 00:00:00 2.91045 C 89.5522 % 1.37 C
116 01-01-2014 00:00:00 6.46912 C 86.4737 % 4.38 C
117 02-01-2014 00:00:00 8.31947 C 88.5649 % 6.54 C
118 03-01-2014 00:00:00 8.74861 C 86.5347 % 6.63 C
119 04-01-2014 00:00:00 7.47049 C 88.5833 % 5.71 C
120 05-01-2014 00:00:00 6.13111 C 91.4622 % 4.85 C
121 06-01-2014 00:00:00 8.33819 C 89.1736 % 6.66 C
122 07-01-2014 00:00:00 10.72882 C 85.7708 % 8.45 C
123 08-01-2014 00:00:00 10.3965 C 86.9027 % 8.31 C
124 09-01-2014 00:00:00 9.27876 C 85.9961 % 7.06 C
125 10-01-2014 00:00:00 5.59896 C 86.9757 % 3.61 C
Sensor: Nr:Datum:Temp:Feuchte:Taupunkt:
Aussen-T/F 126 11-01-2014 00:00:00 3.80382 C 93.2049 % 2.81 C
127 12-01-2014 00:00:00 0.34545 C 97.0618 % -0.06 C
128 13-01-2014 00:00:00 3.73194 C 95.9965 % 3.15 C
129 14-01-2014 00:00:00 5.06036 C 94.4536 % 4.25 C
130 15-01-2014 00:00:00 4.1934 C 91.9444 % 3 C
131 16-01-2014 00:00:00 6.5375 C 93.3160 % 5.54 C
132 17-01-2014 00:00:00 6.75 C 92.8021 % 5.67 C
133 18-01-2014 00:00:00 4.5321 C 90.4686 % 3.11 C
134 19-01-2014 00:00:00 4.621 C 92.0569 % 3.44 C
135 20-01-2014 00:00:00 4.32836 C 94.6567 % 3.55 C
136 21-01-2014 00:00:00 3.49792 C 93.6632 % 2.58 C
137 22-01-2014 00:00:00 3.18571 C 95.3022 % 2.51 C
138 23-01-2014 00:00:00 3.72927 C 92.3049 % 2.6 C
139 24-01-2014 00:00:00 3.90268 C 93.5670 % 2.96 C
140 25-01-2014 00:00:00 2.8165 C 94.8000 % 2.07 C
141 26-01-2014 00:00:00 5.11851 C 83.3630 % 2.54 C
142 27-01-2014 00:00:00 4.4199 C 87.2094 % 2.48 C
143 28-01-2014 00:00:00 2.36869 C 88.8889 % 0.73 C
144 29-01-2014 00:00:00 1.54036 C 85.8253 % -0.57 C
145 30-01-2014 00:00:00 1.98611 C 84.2049 % -0.39 C
146 31-01-2014 00:00:00 1.03819 C 91.0799 % -0.25 C
147 01-02-2014 00:00:00 4.63819 C 89.8646 % 3.12 C
148 02-02-2014 00:00:00 4.14306 C 90.0729 % 2.66 C
149 03-02-2014 00:00:00 1.00938 C 95.5486 % 0.38 C
150 04-02-2014 00:00:00 4.28785 C 89.7083 % 2.75 C
Sensor: Nr:Datum:Temp:Feuchte:Taupunkt:
Aussen-T/F 151 05-02-2014 00:00:00 4.74236 C 89.7049 % 3.2 C
152 06-02-2014 00:00:00 8.42431 C 76.6181 % 4.56 C
153 07-02-2014 00:00:00 8.79132 C 78.4410 % 5.25 C
154 08-02-2014 00:00:00 6.5309 C 83.7222 % 3.98 C
155 09-02-2014 00:00:00 5.34375 C 80.9306 % 2.34 C
156 10-02-2014 00:00:00 3.38819 C 87.2500 % 1.48 C
157 11-02-2014 00:00:00 5.41354 C 82.3819 % 2.66 C
158 12-02-2014 00:00:00 5.44028 C 81.1319 % 2.47 C
159 13-02-2014 00:00:00 5.71771 C 88.4479 % 3.96 C
160 14-02-2014 00:00:00 5.64722 C 85.6979 % 3.44 C
161 15-02-2014 00:00:00 9.70669 C 79.3415 % 6.31 C
162 16-02-2014 00:00:00 7.36493 C 80.5694 % 4.25 C
163 17-02-2014 00:00:00 3.59861 C 91.7118 % 2.38 C
164 18-02-2014 00:00:00 3.38715 C 94.0590 % 2.52 C
165 19-02-2014 00:00:00 7.825 C 84.9722 % 5.46 C
166 20-02-2014 00:00:00 8.68958 C 82.6215 % 5.9 C
167 21-02-2014 00:00:00 7.64062 C 84.5451 % 5.21 C
168 22-02-2014 00:00:00 4.99861 C 87.1563 % 3.05 C
169 23-02-2014 00:00:00 5.94204 C 83.6694 % 3.39 C
170 24-02-2014 00:00:00 5.86389 C 80.9444 % 2.85 C
171 25-02-2014 00:00:00 6.68681 C 82.1910 % 3.87 C
172 26-02-2014 00:00:00 8.58182 C 81.5382 % 5.61 C
173 27-02-2014 00:00:00 5.86275 C 84.1961 % 3.41 C
174 28-02-2014 00:00:00 6.2146 C 87.8248 % 4.35 C
175 01-03-2014 00:00:00 5.44375 C 88.4410 % 3.69 C
Sensor: Nr:Datum:Temp:Feuchte:Taupunkt:
Aussen-T/F 176 02-03-2014 00:00:00 3.55069 C 87.5208 % 1.68 C
177 03-03-2014 00:00:00 5.27743 C 86.6458 % 3.24 C
178 04-03-2014 00:00:00 4.21701 C 86.7118 % 2.2 C
179 05-03-2014 00:00:00 4.68235 C 86.5059 % 2.63 C
180 06-03-2014 00:00:00 3.87951 C 89.4306 % 2.3 C
181 07-03-2014 00:00:00 6.23037 C 80.7383 % 3.17 C
182 08-03-2014 00:00:00 7.3847 C 80.0427 % 4.18 C
183 09-03-2014 00:00:00 7.27263 C 76.4772 % 3.42 C
184 10-03-2014 00:00:00 7.44444 C 75.5035 % 3.41 C
185 11-03-2014 00:00:00 8.4184 C 78.6424 % 4.93 C
186 12-03-2014 00:00:00 9.07812 C 74.1354 % 4.72 C
187 13-03-2014 00:00:00 8.16007 C 73.3681 % 3.69 C
188 14-03-2014 00:00:00 7.91944 C 76.8993 % 4.12 C
189 15-03-2014 00:00:00 8.97326 C 77.3021 % 5.22 C
190 16-03-2014 00:00:00 11.50486 C 77.2500 % 7.67 C
191 17-03-2014 00:00:00 10.27882 C 81.5486 % 7.27 C
192 18-03-2014 00:00:00 9.4066 C 83.2882 % 6.72 C
193 19-03-2014 00:00:00 12.2875 C 70.5521 % 7.1 C
194 20-03-2014 00:00:00 12.49333 C 67.2772 % 6.6 C
195 21-03-2014 00:00:00 13.1375 C 66.5069 % 7.05 C
196 22-03-2014 00:00:00 8.65208 C 83.0799 % 5.95 C
197 23-03-2014 00:00:00 6.03507 C 81.4861 % 3.11 C
198 24-03-2014 00:00:00 5.42632 C 80.7404 % 2.39 C
199 25-03-2014 00:00:00 4.1625 C 82.4271 % 1.44 C
200 26-03-2014 00:00:00 4.56076 C 78.8125 % 1.21 C
Sensor: Nr:Datum:Temp:Feuchte:Taupunkt:
Aussen-T/F 201 27-03-2014 00:00:00 8.14604 C 73.6475 % 3.73 C
202 28-03-2014 00:00:00 10.60972 C 66.4167 % 4.62 C
203 29-03-2014 00:00:00 10.34963 C 70.5809 % 5.24 C
204 30-03-2014 00:00:00 9.15619 C 76.1429 % 5.18 C
205 31-03-2014 00:00:00 12.96562 C 65.8924 % 6.75 C
206 01-04-2014 00:00:00 13.77519 C 67.7366 % 7.92 C
207 02-04-2014 00:00:00 13.90458 C 68.9754 % 8.31 C
208 03-04-2014 00:00:00 12.54324 C 77.5811 % 8.74 C
209 04-04-2014 00:00:00 14.95971 C 74.9173 % 10.55 C
210 05-04-2014 00:00:00 13.00531 C 86.2612 % 10.77 C
211 06-04-2014 00:00:00 11.67782 C 83.0879 % 8.91 C
212 07-04-2014 00:00:00 15.95041 C 75.4713 % 11.62 C
213 08-04-2014 00:00:00 12.18521 C 67.1585 % 6.28 C
214 09-04-2014 00:00:00 9.27426 C 75.9154 % 5.25 C
215 10-04-2014 00:00:00 10.31543 C 77.0864 % 6.48 C
216 11-04-2014 00:00:00 14.56849 C 72.5000 % 9.69 C
217 12-04-2014 00:00:00 12.65368 C 70.8982 % 7.52 C
218 13-04-2014 00:00:00 11.60669 C 71.0599 % 6.55 C
219 14-04-2014 00:00:00 9.7593 C 71.2491 % 4.81 C
220 15-04-2014 00:00:00 7.10171 C 73.7991 % 2.75 C
221 16-04-2014 00:00:00 12.97192 C 49.4521 % 2.65 C
222 17-04-2014 00:00:00 9.85313 C 63.3021 % 3.22 C
223 18-04-2014 00:00:00 10.72049 C 64.8750 % 4.39 C
224 19-04-2014 00:00:00 10.82049 C 71.8993 % 5.96 C
225 20-04-2014 00:00:00 14.91825 C 70.5509 % 9.62 C
Sensor: Nr:Datum:Temp:Feuchte:Taupunkt:
Aussen-T/F 226 21-04-2014 00:00:00 12.49479 C 77.9896 % 8.77 C
227 22-04-2014 00:00:00 12.82847 C 85.6076 % 10.48 C
228 23-04-2014 00:00:00 13.43958 C 81.1771 % 10.28 C
229 24-04-2014 00:00:00 15.42535 C 79.0035 % 11.8 C
230 25-04-2014 00:00:00 16.71562 C 74.1319 % 12.09 C
231 26-04-2014 00:00:00 15.2 C 74.7604 % 10.75 C
232 27-04-2014 00:00:00 13.07674 C 81.7986 % 10.04 C
233 28-04-2014 00:00:00 12.80243 C 79.8715 % 9.42 C
234 29-04-2014 00:00:00 13.43403 C 90.3056 % 11.88 C
235 30-04-2014 00:00:00 14.53507 C 84.7500 % 12 C
236 01-05-2014 00:00:00 14.73611 C 81.3611 % 11.58 C
237 02-05-2014 00:00:00 11.71319 C 86.6736 % 9.57 C
238 03-05-2014 00:00:00 10.92708 C 61.0069 % 3.71 C
239 04-05-2014 00:00:00 9.61042 C 68.0590 % 4.02 C
240 05-05-2014 00:00:00 12.60069 C 67.5521 % 6.76 C
241 06-05-2014 00:00:00 13.72083 C 74.2778 % 9.23 C
242 07-05-2014 00:00:00 13.05764 C 84.9931 % 10.6 C
243 08-05-2014 00:00:00 12.32847 C 84.6146 % 9.81 C
244 09-05-2014 00:00:00 15.33403 C 71.0833 % 10.13 C
245 10-05-2014 00:00:00 12.40903 C 81.6528 % 9.36 C
246 11-05-2014 00:00:00 11.45764 C 80.1667 % 8.16 C
247 12-05-2014 00:00:00 11.1941 C 74.9167 % 6.92 C
248 13-05-2014 00:00:00 10.30729 C 85.3368 % 7.96 C
249 14-05-2014 00:00:00 10.63542 C 76.9514 % 6.77 C
250 15-05-2014 00:00:00 10.00382 C 80.4757 % 6.8 C
Sensor: Nr:Datum:Temp:Feuchte:Taupunkt:
Aussen-T/F 251 16-05-2014 00:00:00 13.25347 C 73.1250 % 8.55 C
252 17-05-2014 00:00:00 14.22292 C 71.7500 % 9.2 C
253 18-05-2014 00:00:00 15.4809 C 74.3021 % 10.93 C
254 19-05-2014 00:00:00 17.57188 C 70.6944 % 12.19 C
255 20-05-2014 00:00:00 19.46562 C 67.3681 % 13.26 C
256 21-05-2014 00:00:00 20.29792 C 68.1181 % 14.23 C
257 22-05-2014 00:00:00 20.21806 C 65.7465 % 13.61 C
258 23-05-2014 00:00:00 15.52639 C 89.6667 % 13.84 C
259 24-05-2014 00:00:00 14.72993 C 81.1514 % 11.53 C
260 25-05-2014 00:00:00 15.25071 C 74.9149 % 10.83 C
261 26-05-2014 00:00:00 16.8625 C 80.3056 % 13.45 C
262 27-05-2014 00:00:00 15.19431 C 94.7346 % 14.36 C
263 28-05-2014 00:00:00 14.58118 C 88.4000 % 12.69 C
264 29-05-2014 00:00:00 13.44653 C 87.1042 % 11.35 C
265 30-05-2014 00:00:00 13.2316 C 70.4167 % 7.97 C
266 31-05-2014 00:00:00 13.40382 C 74.2639 % 8.92 C
267 01-06-2014 00:00:00 15.49273 C 69.6545 % 9.98 C
268 02-06-2014 00:00:00 15.88943 C 67.9715 % 9.99 C
269 03-06-2014 00:00:00 15.78662 C 74.8627 % 11.34 C
270 04-06-2014 00:00:00 14.95388 C 86.4155 % 12.71 C
271 05-06-2014 00:00:00 14.55765 C 67.7687 % 8.68 C
272 06-06-2014 00:00:00 17.20312 C 67.7778 % 11.2 C
273 07-06-2014 00:00:00 20.77257 C 72.3750 % 15.62 C
274 08-06-2014 00:00:00 24.09514 C 70.7431 % 18.45 C
275 09-06-2014 00:00:00 25.74583 C 69.9583 % 19.85 C
Sensor: Nr:Datum:Temp:Feuchte:Taupunkt:
Aussen-T/F 276 10-06-2014 00:00:00 23.66632 C 70.6389 % 18.01 C
277 11-06-2014 00:00:00 20.10803 C 81.3175 % 16.81 C
278 12-06-2014 00:00:00 19.97431 C 66.4583 % 13.54 C
279 13-06-2014 00:00:00 18.37014 C 68.1597 % 12.4 C
280 14-06-2014 00:00:00 17.27465 C 65.5104 % 10.76 C
281 15-06-2014 00:00:00 16.86944 C 67.1875 % 10.75 C
282 16-06-2014 00:00:00 15.61944 C 74.7396 % 11.15 C
283 17-06-2014 00:00:00 17.41354 C 66.8819 % 11.2 C
284 18-06-2014 00:00:00 17.76319 C 71.4931 % 12.54 C
285 19-06-2014 00:00:00 15.70791 C 75.5252 % 11.4 C
286 20-06-2014 00:00:00 15.64143 C 71.1667 % 10.44 C
287 21-06-2014 00:00:00 16.62118 C 65.5903 % 10.15 C
288 22-06-2014 00:00:00 16.62782 C 66.3415 % 10.33 C
289 23-06-2014 00:00:00 17.14792 C 65.1910 % 10.56 C
290 24-06-2014 00:00:00 16.64978 C 71.6277 % 11.5 C
291 25-06-2014 00:00:00 17.29096 C 56.5426 % 8.58 C
292 26-06-2014 00:00:00 16.18958 C 64.0764 % 9.4 C
293 27-06-2014 00:00:00 17.54167 C 67.2604 % 11.41 C
294 28-06-2014 00:00:00 16.28043 C 87.3950 % 14.18 C
295 29-06-2014 00:00:00 14.67192 C 93.3251 % 13.61 C
296 30-06-2014 00:00:00 16.05247 C 75.2167 % 11.67 C
297 01-07-2014 00:00:00 15.65035 C 70.2917 % 10.26 C
298 02-07-2014 00:00:00 16.86146 C 65.5313 % 10.37 C
299 03-07-2014 00:00:00 19.78889 C 59.6493 % 11.72 C
300 04-07-2014 00:00:00 20.36076 C 67.5382 % 14.16 C
Sensor: Nr:Datum:Temp:Feuchte:Taupunkt:
Aussen-T/F 301 05-07-2014 00:00:00 20.4 C 77.3439 % 16.3 C
302 06-07-2014 00:00:00 23.48509 C 69.7818 % 17.65 C
303 07-07-2014 00:00:00 19.86367 C 64.8202 % 13.05 C
304 08-07-2014 00:00:00 15.57633 C 89.8898 % 13.92 C
305 09-07-2014 00:00:00 12.97083 C 95.1667 % 12.22 C
306 10-07-2014 00:00:00 17.68292 C 90.2000 % 16.06 C
307 11-07-2014 00:00:00 18.42369 C 88.6466 % 16.51 C
308 12-07-2014 00:00:00 18.68363 C 88.1018 % 16.67 C
309 13-07-2014 00:00:00 19.06941 C 85.5922 % 16.6 C
310 14-07-2014 00:00:00 19.60206 C 79.5021 % 15.96 C
311 15-07-2014 00:00:00 21.3216 C 70.6901 % 15.78 C
312 16-07-2014 00:00:00 21.88732 C 74.8829 % 17.23 C
313 17-07-2014 00:00:00 23.77903 C 70.2742 % 18.04 C
314 18-07-2014 00:00:00 24.87935 C 65.5097 % 17.97 C
315 19-07-2014 00:00:00 27.76989 C 58.4086 % 18.86 C
316 20-07-2014 00:00:00 22.68715 C 80.6840 % 19.19 C
317 21-07-2014 00:00:00 20.29965 C 91.0660 % 18.79 C
318 22-07-2014 00:00:00 23.6856 C 82.0494 % 20.44 C
319 23-07-2014 00:00:00 23.11788 C 73.8869 % 18.2 C
320 24-07-2014 00:00:00 20.63922 C 73.5020 % 15.74 C
321 25-07-2014 00:00:00 21.8193 C 72.9825 % 16.76 C
322 26-07-2014 00:00:00 21.92 C 74.3097 % 17.14 C
323 27-07-2014 00:00:00 19.66694 C 83.9339 % 16.88 C
324 28-07-2014 00:00:00 22.3284 C 78.8580 % 18.48 C
325 29-07-2014 00:00:00 19.88194 C 95.8125 % 19.19 C
Sensor: Nr:Datum:Temp:Feuchte:Taupunkt:
Aussen-T/F 326 30-07-2014 00:00:00 19.93194 C 85.4097 % 17.41 C
327 31-07-2014 00:00:00 20.20645 C 77.0896 % 16.06 C
328 01-08-2014 00:00:00 20.08438 C 81.7153 % 16.86 C
329 02-08-2014 00:00:00 20.10868 C 84.8264 % 17.48 C
330 03-08-2014 00:00:00 21.3566 C 81.2743 % 18.02 C
331 04-08-2014 00:00:00 19.00347 C 86.5799 % 16.71 C
332 05-08-2014 00:00:00 18.77049 C 82.0208 % 15.64 C
333 06-08-2014 00:00:00 17.59618 C 84.4201 % 14.94 C
334 07-08-2014 00:00:00 18.9934 C 85.7986 % 16.56 C
335 08-08-2014 00:00:00 18.87604 C 89.5625 % 17.12 C
336 09-08-2014 00:00:00 20.16771 C 80.6076 % 16.73 C
337 10-08-2014 00:00:00 19.0125 C 90.0208 % 17.34 C
338 11-08-2014 00:00:00 17.0066 C 81.0000 % 13.72 C
339 12-08-2014 00:00:00 17.62431 C 72.1944 % 12.56 C
340 13-08-2014 00:00:00 15.97674 C 89.6528 % 14.28 C
341 14-08-2014 00:00:00 16.15426 C 84.3298 % 13.51 C
342 15-08-2014 00:00:00 14.48638 C 92.1720 % 13.23 C
343 16-08-2014 00:00:00 15.13439 C 89.3930 % 13.4 C
344 17-08-2014 00:00:00 16.14062 C 77.5243 % 12.21 C
345 18-08-2014 00:00:00 16.30417 C 74.5313 % 11.77 C
346 19-08-2014 00:00:00 13.79653 C 83.4410 % 11.04 C
347 20-08-2014 00:00:00 12.68681 C 83.0799 % 9.89 C
348 21-08-2014 00:00:00 12.84653 C 82.9965 % 10.03 C
349 22-08-2014 00:00:00 14.04062 C 78.5000 % 10.36 C
350 23-08-2014 00:00:00 14.26875 C 83.3194 % 11.48 C
Sensor: Nr:Datum:Temp:Feuchte:Taupunkt:
Aussen-T/F 351 24-08-2014 00:00:00 11.58993 C 93.2465 % 10.54 C
352 25-08-2014 00:00:00 13.23854 C 93.7743 % 12.26 C
353 26-08-2014 00:00:00 14.79479 C 96.8681 % 14.3 C
354 27-08-2014 00:00:00 15.38741 C 91.3237 % 13.98 C
355 28-08-2014 00:00:00 15.84062 C 93.0556 % 14.72 C
356 29-08-2014 00:00:00 18.05278 C 88.6979 % 16.16 C
357 30-08-2014 00:00:00 16.23299 C 90.9965 % 14.76 C
358 31-08-2014 00:00:00 14.70069 C 92.8125 % 13.55 C
359 01-09-2014 00:00:00 14.60556 C 91.4896 % 13.24 C
360 02-09-2014 00:00:00 14.6191 C 90.6771 % 13.11 C
361 03-09-2014 00:00:00 15.03299 C 89.9549 % 13.4 C
362 04-09-2014 00:00:00 16.74028 C 89.6910 % 15.04 C
363 05-09-2014 00:00:00 18.15903 C 91.3819 % 16.73 C
364 06-09-2014 00:00:00 17.4559 C 92.7604 % 16.27 C
365 07-09-2014 00:00:00 18.08889 C 88.1264 % 16.09 C
366 08-09-2014 00:00:00 17.83403 C 84.0833 % 15.11 C
367 09-09-2014 00:00:00 15.64965 C 81.4410 % 12.48 C
368 10-09-2014 00:00:00 14.27882 C 83.4132 % 11.51 C
369 11-09-2014 00:00:00 14.96111 C 83.0903 % 12.12 C
370 12-09-2014 00:00:00 14.12153 C 84.7257 % 11.59 C
371 13-09-2014 00:00:00 16.12118 C 88.7743 % 14.27 C
372 14-09-2014 00:00:00 16.65196 C 88.0641 % 14.67 C
373 15-09-2014 00:00:00 16.079 C 91.5516 % 14.7 C
374 16-09-2014 00:00:00 16.93264 C 90.1458 % 15.31 C
375 17-09-2014 00:00:00 16.05139 C 92.2118 % 14.79 C
Sensor: Nr:Datum:Temp:Feuchte:Taupunkt:
Aussen-T/F 376 18-09-2014 00:00:00 17.4875 C 95.6215 % 16.78 C
377 19-09-2014 00:00:00 18.38993 C 95.2708 % 17.62 C
378 20-09-2014 00:00:00 17.14931 C 96.4583 % 16.58 C
379 21-09-2014 00:00:00 15.46146 C 95.3090 % 14.71 C
380 22-09-2014 00:00:00 12.53194 C 86.3194 % 10.31 C
381 23-09-2014 00:00:00 9.91146 C 90.8993 % 8.5 C
382 24-09-2014 00:00:00 11.10451 C 89.8056 % 9.5 C
383 25-09-2014 00:00:00 13.67917 C 85.6806 % 11.33 C
384 26-09-2014 00:00:00 14.24896 C 88.9653 % 12.46 C
385 27-09-2014 00:00:00 15.59965 C 91.2743 % 14.18 C
386 28-09-2014 00:00:00 14.22743 C 95.0660 % 13.45 C
387 29-09-2014 00:00:00 15.41493 C 94.8472 % 14.59 C
388 30-09-2014 00:00:00 16.83438 C 93.1875 % 15.73 C
389 01-10-2014 00:00:00 15.87778 C 94.6389 % 15.02 C
390 02-10-2014 00:00:00 14.35799 C 95.7326 % 13.69 C
391 03-10-2014 00:00:00 13.73785 C 95.4063 % 13.02 C
392 04-10-2014 00:00:00 12.86979 C 93.2014 % 11.8 C
393 05-10-2014 00:00:00 12.94097 C 94.0799 % 12.01 C
394 06-10-2014 00:00:00 14.3 C 90.3750 % 12.75 C
395 07-10-2014 00:00:00 13.71806 C 92.2986 % 12.49 C
396 08-10-2014 00:00:00 13.3 C 97.6069 % 12.93 C
397 09-10-2014 00:00:00 15.17173 C 97.6859 % 14.81 C
398 10-10-2014 00:00:00 14.20902 C 96.4000 % 13.64 C
399 11-10-2014 00:00:00 14.77847 C 96.0347 % 14.15 C
400 12-10-2014 00:00:00 12.52744 C 95.6029 % 11.84 C
Sensor: Nr:Datum:Temp:Feuchte:Taupunkt:
Aussen-T/F 401 13-10-2014 00:00:00 14.72014 C 96.7569 % 14.21 C
402 14-10-2014 00:00:00 12.54495 C 95.1847 % 11.8 C
403 15-10-2014 00:00:00 11.65639 C 95.3910 % 10.94 C
404 16-10-2014 00:00:00 14.02682 C 94.9818 % 13.24 C
405 17-10-2014 00:00:00 14.05977 C 93.7854 % 13.07 C
406 18-10-2014 00:00:00 12.49887 C 97.7283 % 12.15 C
407 19-10-2014 00:00:00 15.09722 C 92.7188 % 13.93 C
408 20-10-2014 00:00:00 15.06015 C 83.9885 % 12.38 C
409 21-10-2014 00:00:00 11.78491 C 85.1649 % 9.38 C
410 22-10-2014 00:00:00 8.88438 C 85.2674 % 6.55 C
411 23-10-2014 00:00:00 10.3816 C 87.9444 % 8.47 C
412 24-10-2014 00:00:00 10.59097 C 90.2951 % 9.07 C
413 25-10-2014 00:00:00 11.53056 C 94.5417 % 10.69 C
414 26-10-2014 00:00:00 11.35625 C 95.5278 % 10.67 C
415 27-10-2014 00:00:00 9.22813 C 96.0903 % 8.64 C
416 28-10-2014 00:00:00 7.93681 C 88.3750 % 6.14 C
417 29-10-2014 00:00:00 9.50556 C 91.5347 % 8.2 C
418 30-10-2014 00:00:00 12.10625 C 96.8819 % 11.63 C
419 31-10-2014 00:00:00 12.05903 C 97.0694 % 11.61 C
420 01-11-2014 00:00:00 10.92674 C 98.2674 % 10.66 C
421 02-11-2014 00:00:00 11.24448 C 97.2776 % 10.83 C
422 03-11-2014 00:00:00 13.84028 C 90.1806 % 12.26 C
423 04-11-2014 00:00:00 11.22049 C 96.5521 % 10.69 C
424 05-11-2014 00:00:00 9.33229 C 95.2257 % 8.61 C
425 06-11-2014 00:00:00 6.59514 C 92.6250 % 5.49 C
Sensor: Nr:Datum:Temp:Feuchte:Taupunkt:
Aussen-T/F 426 07-11-2014 00:00:00 5.60208 C 94.8160 % 4.84 C
427 08-11-2014 00:00:00 8.8941 C 91.4340 % 7.58 C
428 09-11-2014 00:00:00 6.62257 C 96.8125 % 6.15 C
429 10-11-2014 00:00:00 8.76389 C 96.3715 % 8.22 C
430 11-11-2014 00:00:00 8.47553 C 95.0106 % 7.72 C
431 12-11-2014 00:00:00 9.50104 C 95.2604 % 8.78 C
432 13-11-2014 00:00:00 9.66736 C 96.6806 % 9.17 C
433 14-11-2014 00:00:00 10.60174 C 90.0313 % 9.04 C
434 15-11-2014 00:00:00 9.75938 C 94.5347 % 8.93 C
435 16-11-2014 00:00:00 8.75674 C 97.4468 % 8.38 C
436 17-11-2014 00:00:00 8.71146 C 97.5799 % 8.35 C
437 18-11-2014 00:00:00 8.62491 C 96.7473 % 8.14 C
438 19-11-2014 00:00:00 8.07465 C 95.9514 % 7.47 C
439 20-11-2014 00:00:00 6.45486 C 94.4826 % 5.63 C
440 21-11-2014 00:00:00 5.36458 C 95.0799 % 4.64 C
441 22-11-2014 00:00:00 5.83576 C 95.7569 % 5.21 C
442 23-11-2014 00:00:00 6.30104 C 96.9931 % 5.86 C
443 24-11-2014 00:00:00 7.36679 C 94.6236 % 6.56 C
444 25-11-2014 00:00:00 3.04781 C 97.7769 % 2.73 C
445 26-11-2014 00:00:00 5.29848 C 89.8182 % 3.77 C
446 27-11-2014 00:00:00 5.85447 C 92.9300 % 4.8 C
447 28-11-2014 00:00:00 5.42203 C 91.8771 % 4.21 C
448 29-11-2014 00:00:00 4.46596 C 89.4070 % 2.88 C
449 30-11-2014 00:00:00 3.88993 C 91.8229 % 2.69 C
450 01-12-2014 00:00:00 3.33299 C 91.1840 % 2.04 C
Sensor: Nr:Datum:Temp:Feuchte:Taupunkt:
Aussen-T/F 451 02-12-2014 00:00:00 1.63731 C 91.3192 % 0.38 C
452 03-12-2014 00:00:00 1.74095 C 94.0216 % 0.88 C
453 04-12-2014 00:00:00 2.32917 C 92.6806 % 1.27 C
454 05-12-2014 00:00:00 4.15278 C 92.7500 % 3.09 C
455 06-12-2014 00:00:00 4.51389 C 95.0174 % 3.79 C
456 07-12-2014 00:00:00 4.32049 C 92.1597 % 3.16 C
457 08-12-2014 00:00:00 3.10625 C 93.1458 % 2.11 C
458 09-12-2014 00:00:00 2.57569 C 96.3472 % 2.05 C
459 10-12-2014 00:00:00 4.42118 C 89.8993 % 2.91 C
460 11-12-2014 00:00:00 6.26736 C 89.8125 % 4.72 C
461 12-12-2014 00:00:00 9.07951 C 85.8507 % 6.84 C
462 13-12-2014 00:00:00 4.45625 C 96.4618 % 3.94 C
463 14-12-2014 00:00:00 2.59063 C 96.5868 % 2.1 C
464 15-12-2014 00:00:00 3.42986 C 93.8646 % 2.54 C
465 16-12-2014 00:00:00 6.12049 C 91.8542 % 4.9 C
466 17-12-2014 00:00:00 6.08021 C 92.4167 % 4.95 C
467 18-12-2014 00:00:00 11.91597 C 90.3021 % 10.38 C
468 19-12-2014 00:00:00 10.45243 C 86.8194 % 8.35 C
469 20-12-2014 00:00:00 5.90764 C 85.4618 % 3.66 C
470 21-12-2014 00:00:00 6.41042 C 88.0833 % 4.59 C
471 22-12-2014 00:00:00 8.375 C 87.5139 % 6.43 C
472 23-12-2014 00:00:00 10.04444 C 85.6222 % 7.75 C
473 24-12-2014 00:00:00 8.3214 C 86.1158 % 6.14 C
474 25-12-2014 00:00:00 5.2875 C 85.6027 % 3.08 C
475 26-12-2014 00:00:00 2.31469 C 97.1259 % 1.91 C
Sensor: Nr:Datum:Temp:Feuchte:Taupunkt:
Aussen-T/F 476 27-12-2014 00:00:00 1.46649 C 94.8796 % 0.74 C
477 28-12-2014 00:00:00 -3.09591 C 79.8636 % -6.07 C
478 29-12-2014 00:00:00 -0.46157 C 89.7388 % -1.94 C
479 30-12-2014 00:00:00 2.6765 C 92.5574 % 1.59 C
480 31-12-2014 00:00:00 2.46053 C 93.8487 % 1.57 C
481 01-01-2015 00:00:00 1.89397 C 96.4741 % 1.39 C
482 02-01-2015 00:00:00 3.6411 C 89.1575 % 2.03 C
483 03-01-2015 00:00:00 1.94125 C 94.7000 % 1.18 C
484 04-01-2015 00:00:00 2.94172 C 93.6503 % 2.02 C
485 05-01-2015 00:00:00 -0.02447 C 95.0904 % -0.71 C
486 06-01-2015 00:00:00 0.48846 C 92.6923 % -0.55 C
487 07-01-2015 00:00:00 2.52604 C 92.4113 % 1.42 C
488 08-01-2015 00:00:00 6.62222 C 92.6632 % 5.52 C
489 09-01-2015 00:00:00 9.27879 C 85.8977 % 7.04 C
490 10-01-2015 00:00:00 13.56872 C 83.0051 % 10.74 C
491 11-01-2015 00:00:00 5.45068 C 76.2432 % 1.61 C
492 12-01-2015 00:00:00 6.91962 C 83.3811 % 4.3 C
493 13-01-2015 00:00:00 10.09231 C 75.4163 % 5.95 C
494 14-01-2015 00:00:00 5.9911 C 84.6525 % 3.61 C
495 15-01-2015 00:00:00 10.14352 C 76.1574 % 6.14 C
496 16-01-2015 00:00:00 6.66424 C 88.4201 % 4.89 C
497 17-01-2015 00:00:00 3.35174 C 91.5660 % 2.11 C
498 18-01-2015 00:00:00 1.91111 C 84.4965 % -0.42 C
499 19-01-2015 00:00:00 0.89028 C 89.3889 % -0.65 C
500 20-01-2015 00:00:00 0.86285 C 90.8576 % -0.46 C
Sensor: Nr:Datum:Temp:Feuchte:Taupunkt:
Aussen-T/F 501 21-01-2015 00:00:00 -0.0414 C 88.7123 % -1.68 C
502 22-01-2015 00:00:00 1.45625 C 84.8438 % -0.81 C
503 23-01-2015 00:00:00 1.33299 C 89.6736 % -0.17 C
504 24-01-2015 00:00:00 1.04056 C 91.7189 % -0.15 C
505 25-01-2015 00:00:00 2.19444 C 94.2396 % 1.37 C
506 26-01-2015 00:00:00 3.05694 C 95.0069 % 2.34 C
507 27-01-2015 00:00:00 3.85208 C 93.6806 % 2.93 C
508 28-01-2015 00:00:00 4.1184 C 90.7604 % 2.75 C
509 29-01-2015 00:00:00 3.03715 C 88.2431 % 1.29 C
510 30-01-2015 00:00:00 1.92569 C 90.3715 % 0.52 C
511 31-01-2015 00:00:00 2.07143 C 87.5437 % 0.23 C
512 01-02-2015 00:00:00 2.04274 C 93.0565 % 1.04 C
513 02-02-2015 00:00:00 2.35794 C 89.0635 % 0.75 C
514 03-02-2015 00:00:00 0.88769 C 90.6462 % -0.46 C
515 04-02-2015 00:00:00 0.04848 C 87.0379 % -1.84 C
516 05-02-2015 00:00:00 -1.86778 C 83.7333 % -4.25 C
517 06-02-2015 00:00:00 0.42153 C 69.7431 % -4.45 C
518 07-02-2015 00:00:00 -0.6316 C 80.7569 % -3.52 C
519 08-02-2015 00:00:00 3.19444 C 81.6701 % 0.37 C
520 09-02-2015 00:00:00 4.06597 C 90.9549 % 2.73 C
521 10-02-2015 00:00:00 4.96528 C 91.7188 % 3.73 C
522 11-02-2015 00:00:00 3.82917 C 87.1771 % 1.9 C
523 12-02-2015 00:00:00 2.75556 C 89.3854 % 1.19 C
524 13-02-2015 00:00:00 2.27396 C 89.2326 % 0.69 C
525 14-02-2015 00:00:00 3.73438 C 86.5382 % 1.7 C
Sensor: Nr:Datum:Temp:Feuchte:Taupunkt:
Aussen-T/F 526 15-02-2015 00:00:00 1.72778 C 89.3542 % 0.17 C
527 16-02-2015 00:00:00 1.82744 C 88.4874 % 0.13 C
528 17-02-2015 00:00:00 3.31146 C 88.3646 % 1.58 C
529 18-02-2015 00:00:00 4.09479 C 89.1493 % 2.47 C
530 19-02-2015 00:00:00 0.94861 C 88.1007 % -0.79 C
531 20-02-2015 00:00:00 6.96389 C 77.7326 % 3.35 C
532 21-02-2015 00:00:00 5.27535 C 85.5972 % 3.06 C
533 22-02-2015 00:00:00 3.72083 C 82.6285 % 1.05 C
534 23-02-2015 00:00:00 3.46944 C 89.0000 % 1.83 C
535 24-02-2015 00:00:00 4.88611 C 84.9757 % 2.58 C
536 25-02-2015 00:00:00 4.28403 C 89.1215 % 2.65 C
537 26-02-2015 00:00:00 6.06354 C 89.7708 % 4.51 C
538 27-02-2015 00:00:00 5.01736 C 91.6632 % 3.78 C
539 28-02-2015 00:00:00 2.37187 C 85.8854 % 0.26 C
540 01-03-2015 00:00:00 7.71493 C 80.8125 % 4.63 C
541 02-03-2015 00:00:00 6.14653 C 79.5556 % 2.88 C
542 03-03-2015 00:00:00 5.52812 C 78.2778 % 2.05 C
543 04-03-2015 00:00:00 4.51771 C 82.8576 % 1.86 C
544 05-03-2015 00:00:00 5.08681 C 83.0556 % 2.45 C
545 06-03-2015 00:00:00 4.14931 C 84.0660 % 1.71 C
546 07-03-2015 00:00:00 4.96007 C 81.3993 % 2.05 C
547 08-03-2015 00:00:00 6.05625 C 83.0174 % 3.4 C
548 09-03-2015 00:00:00 7.81354 C 84.5938 % 5.38 C
549 10-03-2015 00:00:00 5.56319 C 96.8542 % 5.1 C
550 11-03-2015 00:00:00 4.39549 C 87.3090 % 2.48 C
Sensor: Nr:Datum:Temp:Feuchte:Taupunkt:
Aussen-T/F 551 12-03-2015 00:00:00 3.92222 C 82.5382 % 1.23 C
552 13-03-2015 00:00:00 4.14514 C 76.4688 % 0.39 C
553 14-03-2015 00:00:00 4.55451 C 82.5729 % 1.85 C
554 15-03-2015 00:00:00 4.61042 C 89.4132 % 3.02 C
555 16-03-2015 00:00:00 4.68368 C 86.6736 % 2.66 C
556 17-03-2015 00:00:00 7.26632 C 81.9722 % 4.4 C
557 18-03-2015 00:00:00 9.08924 C 80.6424 % 5.94 C
558 19-03-2015 00:00:00 7.62431 C 91.9132 % 6.4 C
559 20-03-2015 00:00:00 8.07465 C 82.3889 % 5.26 C
560 21-03-2015 00:00:00 5.69201 C 90.0000 % 4.18 C
561 22-03-2015 00:00:00 5.19792 C 82.4965 % 2.47 C
562 23-03-2015 00:00:00 3.85521 C 84.2118 % 1.44 C
563 24-03-2015 00:00:00 6.94167 C 81.1181 % 3.93 C
564 25-03-2015 00:00:00 7.68056 C 84.0729 % 5.17 C
565 26-03-2015 00:00:00 7.17257 C 77.3333 % 3.48 C
566 27-03-2015 00:00:00 7.64965 C 74.8472 % 3.48 C
567 28-03-2015 00:00:00 8.51667 C 79.0243 % 5.09 C
568 29-03-2015 00:00:00 11.63659 C 83.7029 % 8.98 C
569 30-03-2015 00:00:00 8.21597 C 71.2222 % 3.32 C
570 31-03-2015 00:00:00 10.06181 C 74.1771 % 5.68 C
571 01-04-2015 00:00:00 6.38924 C 70.3542 % 1.4 C
572 02-04-2015 00:00:00 6.45868 C 73.6250 % 2.1 C
573 03-04-2015 00:00:00 5.87951 C 71.3819 % 1.11 C
574 04-04-2015 00:00:00 6.24896 C 76.7882 % 2.49 C
575 05-04-2015 00:00:00 5.21354 C 69.6042 % 0.12 C
Sensor: Nr:Datum:Temp:Feuchte:Taupunkt:
Aussen-T/F 576 06-04-2015 00:00:00 5.33542 C 76.9201 % 1.62 C
577 07-04-2015 00:00:00 5.98646 C 76.3785 % 2.16 C
578 08-04-2015 00:00:00 8.43776 C 77.5594 % 4.75 C
579 09-04-2015 00:00:00 11.19653 C 77.2118 % 7.36 C
580 10-04-2015 00:00:00 13.22708 C 68.0278 % 7.46 C
581 11-04-2015 00:00:00 12.37118 C 70.6736 % 7.2 C
582 12-04-2015 00:00:00 11.34444 C 70.3090 % 6.14 C
583 13-04-2015 00:00:00 11.50104 C 69.8576 % 6.2 C
584 14-04-2015 00:00:00 13.37778 C 67.0347 % 7.39 C
585 15-04-2015 00:00:00 16.43472 C 63.5799 % 9.51 C
586 16-04-2015 00:00:00 15.04757 C 69.6493 % 9.55 C
587 17-04-2015 00:00:00 11.41736 C 67.7951 % 5.69 C
588 18-04-2015 00:00:00 8.60486 C 64.9931 % 2.41 C
589 19-04-2015 00:00:00 9.50903 C 62.7708 % 2.78 C
590 20-04-2015 00:00:00 12.20312 C 60.9549 % 4.9 C
591 21-04-2015 00:00:00 13.69549 C 60.5278 % 6.21 C
592 22-04-2015 00:00:00 10.77465 C 69.4826 % 5.42 C
593 23-04-2015 00:00:00 10.84062 C 70.1806 % 5.63 C
594 24-04-2015 00:00:00 13.43403 C 62.6701 % 6.46 C
595 25-04-2015 00:00:00 12.95486 C 81.1250 % 9.8 C
596 26-04-2015 00:00:00 15.34444 C 79.1736 % 11.76 C
597 27-04-2015 00:00:00 10.42014 C 94.5868 % 9.59 C
598 28-04-2015 00:00:00 9.15382 C 73.6910 % 4.71 C
599 29-04-2015 00:00:00 8.3059 C 73.2951 % 3.82 C
600 30-04-2015 00:00:00 9.85764 C 80.8819 % 6.73 C
Sensor: Nr:Datum:Temp:Feuchte:Taupunkt:
Aussen-T/F 601 01-05-2015 00:00:00 8.17979 C 82.7700 % 5.43 C
602 02-05-2015 00:00:00 9.88958 C 78.1007 % 6.26 C
603 03-05-2015 00:00:00 13.80469 C 89.9856 % 12.19 C
604 04-05-2015 00:00:00 16.61875 C 81.1319 % 13.37 C
605 05-05-2015 00:00:00 18.45035 C 74.4514 % 13.83 C
606 06-05-2015 00:00:00 13.3566 C 69.4306 % 7.89 C
607 07-05-2015 00:00:00 13.35764 C 65.8646 % 7.12 C
608 08-05-2015 00:00:00 14.46632 C 68.7951 % 8.81 C
609 09-05-2015 00:00:00 15.2441 C 75.9410 % 11.03 C
610 10-05-2015 00:00:00 14.78229 C 75.1944 % 10.44 C
611 11-05-2015 00:00:00 17.12812 C 73.8611 % 12.43 C
612 12-05-2015 00:00:00 18.0309 C 74.6181 % 13.46 C
613 13-05-2015 00:00:00 14.45208 C 67.5590 % 8.53 C
614 14-05-2015 00:00:00 14.14351 C 72.7298 % 9.33 C
615 15-05-2015 00:00:00 15.02882 C 77.6215 % 11.15 C
616 16-05-2015 00:00:00 12.01528 C 78.7569 % 8.45 C
617 17-05-2015 00:00:00 14.18924 C 70.3750 % 8.88 C
618 18-05-2015 00:00:00 15.27535 C 65.6250 % 8.88 C
619 19-05-2015 00:00:00 13.64941 C 60.6403 % 6.19 C
620 20-05-2015 00:00:00 11.71144 C 70.5166 % 6.54 C
621 21-05-2015 00:00:00 11.60764 C 69.7118 % 6.27 C
622 22-05-2015 00:00:00 15.74722 C 61.0868 % 8.27 C
623 23-05-2015 00:00:00 15.85278 C 71.0625 % 10.62 C
624 24-05-2015 00:00:00 17.02887 C 75.7852 % 12.73 C
625 25-05-2015 00:00:00 13.82968 C 88.0452 % 11.89 C
Sensor: Nr:Datum:Temp:Feuchte:Taupunkt:
Aussen-T/F 626 26-05-2015 00:00:00 11.87604 C 75.6736 % 7.72 C
627 27-05-2015 00:00:00 11.63958 C 70.3194 % 6.43 C
628 28-05-2015 00:00:00 14.21944 C 69.5104 % 8.73 C
629 29-05-2015 00:00:00 13.27367 C 76.0712 % 9.15 C
630 30-05-2015 00:00:00 12.66319 C 71.2188 % 7.59 C
631 31-05-2015 00:00:00 14.50903 C 73.4653 % 9.83 C
632 01-06-2015 00:00:00 14.86667 C 79.3472 % 11.33 C
633 02-06-2015 00:00:00 16.57639 C 73.3056 % 11.78 C
634 03-06-2015 00:00:00 17.74965 C 70.8646 % 12.4 C
635 04-06-2015 00:00:00 18.54896 C 65.3993 % 11.94 C
636 05-06-2015 00:00:00 22.1191 C 67.8681 % 15.91 C
637 06-06-2015 00:00:00 19.94028 C 80.0208 % 16.39 C
638 07-06-2015 00:00:00 18.04306 C 59.8576 % 10.13 C
639 08-06-2015 00:00:00 16.17222 C 63.8056 % 9.32 C
640 09-06-2015 00:00:00 14.94792 C 62.4688 % 7.85 C
641 10-06-2015 00:00:00 17.10208 C 66.1146 % 10.73 C
642 11-06-2015 00:00:00 19.95895 C 61.7825 % 12.41 C
643 12-06-2015 00:00:00 19.48699 C 78.0855 % 15.57 C
644 13-06-2015 00:00:00 18.63958 C 85.4028 % 16.14 C
645 14-06-2015 00:00:00 19.07708 C 68.7674 % 13.21 C
646 15-06-2015 00:00:00 17.59271 C 74.7535 % 13.06 C
647 16-06-2015 00:00:00 15.68924 C 63.0868 % 8.69 C
648 17-06-2015 00:00:00 15.5816 C 65.6250 % 9.18 C
649 18-06-2015 00:00:00 17.15625 C 75.1736 % 12.73 C
650 19-06-2015 00:00:00 12.7559 C 82.5104 % 9.86 C
Sensor: Nr:Datum:Temp:Feuchte:Taupunkt:
Aussen-T/F 651 20-06-2015 00:00:00 13.05547 C 82.0000 % 10.06 C
652 21-06-2015 00:00:00 15.43396 C 84.8358 % 12.9 C
653 22-06-2015 00:00:00 13.19855 C 87.9273 % 11.24 C
654 23-06-2015 00:00:00 11.71206 C 92.2057 % 10.49 C
655 24-06-2015 00:00:00 14.96215 C 81.0417 % 11.74 C
656 25-06-2015 00:00:00 17.94306 C 75.7118 % 13.6 C
657 26-06-2015 00:00:00 19.40139 C 78.2465 % 15.52 C
658 27-06-2015 00:00:00 20.26461 C 74.9877 % 15.69 C
659 28-06-2015 00:00:00 18.39741 C 72.8405 % 13.44 C
660 29-06-2015 00:00:00 23.63875 C 61.7438 % 15.87 C
661 30-06-2015 00:00:00 21.94847 C 63.2710 % 14.65 C
662 01-07-2015 00:00:00 24.13993 C 63.3022 % 16.73 C
663 02-07-2015 00:00:00 26.83474 C 64.8246 % 19.66 C
664 03-07-2015 00:00:00 28.2408 C 65.4400 % 21.14 C
665 04-07-2015 00:00:00 27.77951 C 67.8229 % 21.29 C
666 05-07-2015 00:00:00 26.75417 C 64.4028 % 19.47 C
667 06-07-2015 00:00:00 23.89674 C 54.1630 % 14.07 C
668 07-07-2015 00:00:00 23.4251 C 64.1833 % 16.27 C
669 08-07-2015 00:00:00 17.62465 C 71.6944 % 12.45 C
670 09-07-2015 00:00:00 16.50669 C 68.3134 % 10.65 C
671 10-07-2015 00:00:00 17.02947 C 57.6175 % 8.61 C
672 11-07-2015 00:00:00 21.24132 C 54.9340 % 11.83 C
673 12-07-2015 00:00:00 19.0157 C 71.3264 % 13.71 C
674 13-07-2015 00:00:00 17.93777 C 85.0638 % 15.39 C
675 14-07-2015 00:00:00 21.06476 C 74.5551 % 16.37 C
Sensor: Nr:Datum:Temp:Feuchte:Taupunkt:
Aussen-T/F 676 15-07-2015 00:00:00 21.59368 C 75.8000 % 17.14 C
677 16-07-2015 00:00:00 24.00382 C 71.6667 % 18.57 C
678 17-07-2015 00:00:00 28.34301 C 50.2206 % 16.99 C
679 18-07-2015 00:00:00 23.63602 C 62.5441 % 16.06 C
680 19-07-2015 00:00:00 21.84756 C 77.9451 % 17.83 C
681 20-07-2015 00:00:00 22.02667 C 88.1833 % 19.98 C
682 21-07-2015 00:00:00 26.21048 C 69.2476 % 20.13 C
683 22-07-2015 00:00:00 23.3275 C 74.4857 % 18.53 C
684 23-07-2015 00:00:00 20.60312 C 64.9514 % 13.78 C
685 24-07-2015 00:00:00 21.45543 C 69.6180 % 15.67 C
686 25-07-2015 00:00:00 17.38849 C 77.9048 % 13.5 C
687 26-07-2015 00:00:00 15.82244 C 71.9961 % 10.79 C
688 27-07-2015 00:00:00 17.63472 C 81.2604 % 14.39 C
689 28-07-2015 00:00:00 17.16294 C 63.9825 % 10.3 C
690 29-07-2015 00:00:00 17.78846 C 55.9808 % 8.9 C
691 30-07-2015 00:00:00 14.2708 C 74.1720 % 9.74 C
692 31-07-2015 00:00:00 16.9314 C 65.0744 % 10.33 C
693 01-08-2015 00:00:00 19.24097 C 59.1319 % 11.07 C
694 02-08-2015 00:00:00 20.84722 C 61.6979 % 13.23 C
695 03-08-2015 00:00:00 23.19217 C 57.6157 % 14.37 C
696 04-08-2015 00:00:00 19.03299 C 81.7396 % 15.84 C
697 05-08-2015 00:00:00 19.79201 C 76.1424 % 15.47 C
698 06-08-2015 00:00:00 24 C 66.2153 % 17.31 C
699 07-08-2015 00:00:00 26.94306 C 61.3715 % 18.88 C
700 08-08-2015 00:00:00 22.82014 C 79.2431 % 19.03 C
Sensor: Nr:Datum:Temp:Feuchte:Taupunkt:
Aussen-T/F 701 09-08-2015 00:00:00 21.98785 C 77.7708 % 17.93 C
702 10-08-2015 00:00:00 19.76944 C 83.2465 % 16.85 C
703 11-08-2015 00:00:00 21.91979 C 74.4583 % 17.17 C
704 12-08-2015 00:00:00 23.09896 C 77.4583 % 18.94 C
705 13-08-2015 00:00:00 25.32292 C 70.7535 % 19.63 C
706 14-08-2015 00:00:00 24.17396 C 69.3611 % 18.21 C
707 15-08-2015 00:00:00 20.86319 C 72.4201 % 15.72 C
708 16-08-2015 00:00:00 15.85799 C 89.8924 % 14.2 C
709 17-08-2015 00:00:00 14.78889 C 90.7396 % 13.29 C
710 18-08-2015 00:00:00 15.90625 C 82.9757 % 13.02 C
711 19-08-2015 00:00:00 15.71493 C 78.1458 % 11.92 C
712 20-08-2015 00:00:00 18.10382 C 74.0625 % 13.41 C
713 21-08-2015 00:00:00 18.85764 C 70.1910 % 13.31 C
714 22-08-2015 00:00:00 19.10729 C 64.2708 % 12.21 C
715 23-08-2015 00:00:00 19.89722 C 63.7431 % 12.83 C
716 24-08-2015 00:00:00 19.22187 C 83.3750 % 16.34 C
717 25-08-2015 00:00:00 17.40729 C 68.3472 % 11.52 C
718 26-08-2015 00:00:00 20.71458 C 65.1667 % 13.94 C
719 27-08-2015 00:00:00 18.60486 C 83.2986 % 15.72 C
720 28-08-2015 00:00:00 16.57292 C 89.2813 % 14.8 C
721 29-08-2015 00:00:00 19.31181 C 88.3993 % 17.35 C
722 30-08-2015 00:00:00 23.12396 C 82.7396 % 20.03 C
723 31-08-2015 00:00:00 24.2934 C 69.7604 % 18.42 C
724 01-09-2015 00:00:00 17.4059 C 90.9826 % 15.92 C
725 02-09-2015 00:00:00 15.13229 C 84.9479 % 12.62 C
Sensor: Nr:Datum:Temp:Feuchte:Taupunkt:
Aussen-T/F 726 03-09-2015 00:00:00 13.95937 C 84.7326 % 11.43 C
727 04-09-2015 00:00:00 13.54792 C 79.5833 % 10.09 C
728 05-09-2015 00:00:00 13.21701 C 84.4479 % 10.65 C
729 06-09-2015 00:00:00 13.11632 C 74.0868 % 8.61 C
730 07-09-2015 00:00:00 13.56493 C 87.0000 % 11.44 C
731 08-09-2015 00:00:00 15.09236 C 84.9271 % 12.58 C
732 09-09-2015 00:00:00 15.60139 C 76.2118 % 11.43 C
733 10-09-2015 00:00:00 13.23854 C 76.5972 % 9.22 C
734 11-09-2015 00:00:00 13.19792 C 79.2847 % 9.69 C
735 12-09-2015 00:00:00 15.35312 C 83.7361 % 12.62 C
736 13-09-2015 00:00:00 17.07153 C 92.6042 % 15.86 C
737 14-09-2015 00:00:00 15.52639 C 91.7431 % 14.19 C
738 15-09-2015 00:00:00 12.94931 C 87.0938 % 10.86 C
739 16-09-2015 00:00:00 15.01667 C 93.7153 % 14.01 C
740 17-09-2015 00:00:00 14.6566 C 91.2049 % 13.24 C
741 18-09-2015 00:00:00 14.53542 C 85.5278 % 12.14 C
742 19-09-2015 00:00:00 14.32292 C 87.2118 % 12.23 C
743 20-09-2015 00:00:00 13.77188 C 84.7743 % 11.26 C
744 21-09-2015 00:00:00 12.22847 C 90.1354 % 10.66 C
745 22-09-2015 00:00:00 13.06701 C 91.6285 % 11.74 C
746 23-09-2015 00:00:00 11.92535 C 93.3056 % 10.88 C
747 24-09-2015 00:00:00 13.09618 C 90.9340 % 11.65 C
748 25-09-2015 00:00:00 13.95278 C 87.2257 % 11.86 C
749 26-09-2015 00:00:00 12.73889 C 89.2049 % 11.01 C
750 27-09-2015 00:00:00 11.29236 C 83.7500 % 8.65 C
Sensor: Nr:Datum:Temp:Feuchte:Taupunkt:
Aussen-T/F 751 28-09-2015 00:00:00 10.50729 C 82.5556 % 7.67 C
752 29-09-2015 00:00:00 10.96979 C 81.2257 % 7.88 C
753 30-09-2015 00:00:00 10.73368 C 77.8993 % 7.04 C
754 01-10-2015 00:00:00 9.88646 C 74.8576 % 5.64 C
755 02-10-2015 00:00:00 9.21528 C 85.2083 % 6.86 C
756 03-10-2015 00:00:00 11.40139 C 85.8993 % 9.13 C
757 04-10-2015 00:00:00 12.61562 C 91.5000 % 11.27 C
758 05-10-2015 00:00:00 11.96597 C 92.3958 % 10.77 C
759 06-10-2015 00:00:00 15.93854 C 95.3576 % 15.2 C
760 07-10-2015 00:00:00 14.99028 C 89.4375 % 13.27 C
761 08-10-2015 00:00:00 13.45521 C 86.9167 % 11.32 C
762 09-10-2015 00:00:00 12.29618 C 93.3993 % 11.26 C
763 10-10-2015 00:00:00 12.19271 C 87.9236 % 10.25 C
764 11-10-2015 00:00:00 8.37431 C 76.8542 % 4.56 C
765 12-10-2015 00:00:00 5.28229 C 82.6007 % 2.57 C
766 13-10-2015 00:00:00 4.33542 C 90.2049 % 2.88 C
767 14-10-2015 00:00:00 3.63333 C 95.0139 % 2.91 C
768 15-10-2015 00:00:00 4.25694 C 95.2500 % 3.57 C
769 16-10-2015 00:00:00 6.52431 C 92.4236 % 5.39 C
770 17-10-2015 00:00:00 6.99375 C 89.5000 % 5.39 C
771 18-10-2015 00:00:00 7.25556 C 90.9896 % 5.89 C
772 19-10-2015 00:00:00 8.22361 C 91.6285 % 6.94 C
773 20-10-2015 00:00:00 9.33576 C 93.8785 % 8.4 C
774 21-10-2015 00:00:00 9.83611 C 91.5903 % 8.53 C
775 22-10-2015 00:00:00 11.18472 C 88.5000 % 9.36 C
Sensor: Nr:Datum:Temp:Feuchte:Taupunkt:
Aussen-T/F 776 23-10-2015 00:00:00 10.26979 C 95.0417 % 9.51 C
777 24-10-2015 00:00:00 11.03438 C 89.7465 % 9.42 C
778 25-10-2015 00:00:00 11.68229 C 92.6528 % 10.53 C
779 26-10-2015 00:00:00 9.55312 C 94.6736 % 8.74 C
780 27-10-2015 00:00:00 8.10278 C 94.6701 % 7.3 C
781 28-10-2015 00:00:00 9.54444 C 91.5382 % 8.24 C
782 29-10-2015 00:00:00 10.48299 C 92.5799 % 9.33 C
783 30-10-2015 00:00:00 7.79965 C 95.7917 % 7.17 C
784 31-10-2015 00:00:00 7.27118 C 93.9479 % 6.36 C
785 01-11-2015 00:00:00 6.57708 C 96.2118 % 6.02 C
786 02-11-2015 00:00:00 4.67431 C 96.7049 % 4.2 C
787 03-11-2015 00:00:00 4.99896 C 95.2813 % 4.31 C
788 04-11-2015 00:00:00 7.79549 C 94.1146 % 6.91 C
789 05-11-2015 00:00:00 10.38299 C 95.2569 % 9.66 C
790 06-11-2015 00:00:00 13.31493 C 92.8854 % 12.19 C
791 07-11-2015 00:00:00 16.40417 C 94.1493 % 15.46 C
792 08-11-2015 00:00:00 12.97292 C 95.2118 % 12.23 C
793 09-11-2015 00:00:00 14.80846 C 83.2353 % 11.99 C
794 10-11-2015 00:00:00 13.07951 C 84.1493 % 10.47 C
795 11-11-2015 00:00:00 11.7066 C 84.5625 % 9.2 C
796 12-11-2015 00:00:00 11.71562 C 87.6354 % 9.73 C
797 13-11-2015 00:00:00 10.51875 C 88.3993 % 8.68 C
798 14-11-2015 00:00:00 8.91806 C 83.4722 % 6.27 C
799 15-11-2015 00:00:00 12.53854 C 84.1944 % 9.95 C
800 16-11-2015 00:00:00 11.63438 C 83.7708 % 8.99 C
Sensor: Nr:Datum:Temp:Feuchte:Taupunkt:
Aussen-T/F 801 17-11-2015 00:00:00 14.03889 C 89.3438 % 12.31 C
802 18-11-2015 00:00:00 13.87604 C 73.4063 % 9.21 C
803 19-11-2015 00:00:00 12.23611 C 85.8750 % 9.94 C
804 20-11-2015 00:00:00 7.64444 C 94.6667 % 6.84 C
805 21-11-2015 00:00:00 3.88021 C 91.2500 % 2.59 C
806 22-11-2015 00:00:00 2.85139 C 91.2396 % 1.57 C
807 23-11-2015 00:00:00 2.48125 C 91.7917 % 1.29 C
808 24-11-2015 00:00:00 1.88785 C 89.9931 % 0.42 C
809 25-11-2015 00:00:00 4.63646 C 91.6528 % 3.4 C
810 26-11-2015 00:00:00 4.92257 C 92.5174 % 3.81 C
811 27-11-2015 00:00:00 2.23299 C 94.7951 % 1.49 C
812 28-11-2015 00:00:00 4.42821 C 85.6357 % 2.24 C
813 29-11-2015 00:00:00 9.10451 C 86.0660 % 6.9 C
814 30-11-2015 00:00:00 9.89514 C 90.3056 % 8.38 C
815 01-12-2015 00:00:00 11.24618 C 92.4410 % 10.07 C
816 02-12-2015 00:00:00 9.85729 C 87.9375 % 7.96 C
817 03-12-2015 00:00:00 7.55664 C 86.3252 % 5.42 C
818 04-12-2015 00:00:00 6.93333 C 91.5694 % 5.66 C
819 05-12-2015 00:00:00 6.05903 C 89.7500 % 4.51 C
820 06-12-2015 00:00:00 8.44861 C 86.8160 % 6.38 C
821 07-12-2015 00:00:00 8.35868 C 92.6840 % 7.24 C
822 08-12-2015 00:00:00 4.51007 C 97.2292 % 4.11 C
823 09-12-2015 00:00:00 6.58229 C 94.7396 % 5.8 C
824 10-12-2015 00:00:00 3.22882 C 93.5590 % 2.29 C
825 11-12-2015 00:00:00 4.75451 C 92.5069 % 3.65 C
Sensor: Nr:Datum:Temp:Feuchte:Taupunkt:
Aussen-T/F 826 12-12-2015 00:00:00 8.05903 C 95.3681 % 7.36 C
827 13-12-2015 00:00:00 8.6316 C 90.9167 % 7.23 C
828 14-12-2015 00:00:00 5.9875 C 96.5243 % 5.48 C
829 15-12-2015 00:00:00 5.6816 C 96.2813 % 5.14 C
830 16-12-2015 00:00:00 9.66146 C 97.4514 % 9.28 C
831 17-12-2015 00:00:00 12.51647 C 94.1098 % 11.6 C
832 18-12-2015 00:00:00 11.17396 C 93.8472 % 10.22 C
833 19-12-2015 00:00:00 11.26667 C 91.7708 % 9.98 C
834 20-12-2015 00:00:00 7.84687 C 96.5278 % 7.33 C
835 21-12-2015 00:00:00 10.07014 C 88.0938 % 8.19 C
836 22-12-2015 00:00:00 11.62281 C 82.5175 % 8.75 C
837 23-12-2015 00:00:00 10.964 C 81.0000 % 7.83 C
838 24-12-2015 00:00:00 11.76867 C 85.1506 % 9.36 C
839 25-12-2015 00:00:00 11.08646 C 87.9063 % 9.16 C
840 26-12-2015 00:00:00 10.37257 C 87.6354 % 8.41 C
841 27-12-2015 00:00:00 7.5375 C 92.7847 % 6.45 C
842 28-12-2015 00:00:00 2.6941 C 97.0833 % 2.28 C
843 29-12-2015 00:00:00 3.10521 C 97.6493 % 2.77 C
844 30-12-2015 00:00:00 4.88299 C 93.8507 % 3.98 C
845 31-12-2015 00:00:00 5.0934 C 93.0000 % 4.06 C
846 01-01-2016 00:00:00 4.17222 C 95.5521 % 3.53 C
847 02-01-2016 00:00:00 4.50451 C 93.6563 % 3.57 C
848 03-01-2016 00:00:00 5.64826 C 92.3889 % 4.51 C
849 04-01-2016 00:00:00 5.3184 C 94.4861 % 4.51 C
850 05-01-2016 00:00:00 6.45694 C 91.6285 % 5.2 C
Sensor: Nr:Datum:Temp:Feuchte:Taupunkt:
Aussen-T/F 851 06-01-2016 00:00:00 5.95903 C 94.3542 % 5.12 C
852 07-01-2016 00:00:00 5.04028 C 94.1042 % 4.17 C
853 08-01-2016 00:00:00 3.28646 C 90.7396 % 1.92 C
854 09-01-2016 00:00:00 1.12292 C 97.2361 % 0.73 C
855 10-01-2016 00:00:00 6.27708 C 91.8785 % 5.06 C
856 11-01-2016 00:00:00 5.25729 C 94.6875 % 4.48 C
857 12-01-2016 00:00:00 5.58229 C 88.8229 % 3.89 C
858 13-01-2016 00:00:00 4.93333 C 89.9931 % 3.43 C
859 14-01-2016 00:00:00 3.31701 C 89.1944 % 1.71 C
860 15-01-2016 00:00:00 2.89062 C 90.6806 % 1.52 C
861 16-01-2016 00:00:00 2.0875 C 90.9653 % 0.77 C
862 17-01-2016 00:00:00 0.26424 C 83.9583 % -2.12 C
863 18-01-2016 00:00:00 -4.85799 C 90.6840 % -6.14 C
864 19-01-2016 00:00:00 -5.27882 C 89.7257 % -6.7 C
865 20-01-2016 00:00:00 -1.61806 C 91.4618 % -2.82 C
866 21-01-2016 00:00:00 0.6684 C 92.9618 % -0.34 C
867 22-01-2016 00:00:00 -2.10729 C 91.9201 % -3.24 C
868 23-01-2016 00:00:00 4.1559 C 94.7465 % 3.39 C
869 24-01-2016 00:00:00 5.37396 C 93.7882 % 4.46 C
870 25-01-2016 00:00:00 7.51076 C 93.2813 % 6.5 C
871 26-01-2016 00:00:00 9.35729 C 85.4410 % 7.04 C
872 27-01-2016 00:00:00 11.44792 C 70.5313 % 6.29 C
873 28-01-2016 00:00:00 7.3625 C 85.9931 % 5.18 C
874 29-01-2016 00:00:00 5.64583 C 86.0833 % 3.51 C
875 30-01-2016 00:00:00 7.42914 C 86.8885 % 5.39 C
Sensor: Nr:Datum:Temp:Feuchte:Taupunkt:
Aussen-T/F 876 31-01-2016 00:00:00 6.31944 C 89.3819 % 4.7 C
877 01-02-2016 00:00:00 11.92326 C 84.3993 % 9.38 C
878 02-02-2016 00:00:00 10.40035 C 86.6354 % 8.27 C
879 03-02-2016 00:00:00 5.14306 C 85.1354 % 2.86 C
880 04-02-2016 00:00:00 4.62118 C 90.7153 % 3.24 C
881 05-02-2016 00:00:00 7.46076 C 91.2847 % 6.13 C
882 06-02-2016 00:00:00 8.36806 C 86.5069 % 6.25 C
883 07-02-2016 00:00:00 9.22743 C 76.8021 % 5.37 C
884 08-02-2016 00:00:00 8.09062 C 80.4167 % 4.93 C
885 09-02-2016 00:00:00 7.11076 C 85.9306 % 4.92 C
886 10-02-2016 00:00:00 4.86562 C 85.1493 % 2.59 C
887 11-02-2016 00:00:00 4.89444 C 87.2674 % 2.96 C
888 12-02-2016 00:00:00 3.0316 C 85.9826 % 0.92 C
889 13-02-2016 00:00:00 1.57049 C 93.5625 % 0.65 C
890 14-02-2016 00:00:00 4.64965 C 94.9931 % 3.92 C
891 15-02-2016 00:00:00 2.20278 C 91.7396 % 1 C
892 16-02-2016 00:00:00 0.19792 C 81.4688 % -2.59 C
893 17-02-2016 00:00:00 0.40625 C 88.6771 % -1.24 C
894 18-02-2016 00:00:00 2.11285 C 85.4514 % -0.07 C
895 19-02-2016 00:00:00 1.43507 C 92.3472 % 0.33 C
896 20-02-2016 00:00:00 6.41528 C 92.1944 % 5.24 C
897 21-02-2016 00:00:00 11.8375 C 88.1042 % 9.93 C
898 22-02-2016 00:00:00 9.57778 C 85.1250 % 7.21 C
899 23-02-2016 00:00:00 2.26424 C 95.8333 % 1.67 C
900 24-02-2016 00:00:00 2.15243 C 91.2674 % 0.88 C
Sensor: Nr:Datum:Temp:Feuchte:Taupunkt:
Aussen-T/F 901 25-02-2016 00:00:00 0.66597 C 90.3507 % -0.73 C
902 26-02-2016 00:00:00 2.36771 C 85.4931 % 0.19 C
903 27-02-2016 00:00:00 2.35694 C 77.3333 % -1.19 C
904 28-02-2016 00:00:00 2.12509 C 77.4145 % -1.4 C
905 29-02-2016 00:00:00 3.32569 C 70.7847 % -1.46 C
906 01-03-2016 00:00:00 1.1875 C 81.7361 % -1.58 C
907 02-03-2016 00:00:00 6.5125 C 83.4375 % 3.91 C
908 03-03-2016 00:00:00 3.61736 C 87.0208 % 1.66 C
909 04-03-2016 00:00:00 1.76528 C 93.4722 % 0.83 C
910 05-03-2016 00:00:00 4.32153 C 92.1042 % 3.16 C
911 06-03-2016 00:00:00 3.0434 C 94.2535 % 2.21 C
912 07-03-2016 00:00:00 2.40347 C 93.7049 % 1.5 C
913 08-03-2016 00:00:00 1.75521 C 90.5972 % 0.39 C
914 09-03-2016 00:00:00 2.60799 C 83.1042 % 0.04 C
915 10-03-2016 00:00:00 2.73576 C 83.8264 % 0.28 C
916 11-03-2016 00:00:00 4.25868 C 83.4757 % 1.71 C
917 12-03-2016 00:00:00 4.36424 C 78.1215 % 0.9 C
918 13-03-2016 00:00:00 5.06944 C 77.3924 % 1.45 C
919 14-03-2016 00:00:00 4.20451 C 71.0174 % -0.57 C
920 15-03-2016 00:00:00 3.53264 C 80.5833 % 0.52 C
921 16-03-2016 00:00:00 4.7066 C 73.0556 % 0.3 C
922 17-03-2016 00:00:00 4.57049 C 75.0625 % 0.54 C
923 18-03-2016 00:00:00 3.8934 C 83.0868 % 1.29 C
924 19-03-2016 00:00:00 5.67465 C 87.0938 % 3.7 C
925 20-03-2016 00:00:00 5.89583 C 80.9514 % 2.88 C
Sensor: Nr:Datum:Temp:Feuchte:Taupunkt:
Aussen-T/F 926 21-03-2016 00:00:00 7.0625 C 84.7813 % 4.68 C
927 22-03-2016 00:00:00 8.10035 C 79.6354 % 4.8 C
928 23-03-2016 00:00:00 7.93438 C 81.8576 % 5.03 C
929 24-03-2016 00:00:00 7.05069 C 85.9410 % 4.86 C
930 25-03-2016 00:00:00 6.93125 C 92.5347 % 5.81 C
931 26-03-2016 00:00:00 9.02778 C 82.5382 % 6.22 C
932 27-03-2016 00:00:00 9.36558 C 82.0543 % 6.46 C
933 28-03-2016 00:00:00 8.24167 C 84.3993 % 5.77 C
934 29-03-2016 00:00:00 9.19792 C 74.2535 % 4.86 C
935 30-03-2016 00:00:00 9.98958 C 84.7431 % 7.54 C
936 31-03-2016 00:00:00 7.10243 C 92.7153 % 6 C
937 01-04-2016 00:00:00 7.02396 C 85.1076 % 4.7 C
938 02-04-2016 00:00:00 8.56007 C 85.2361 % 6.23 C
939 03-04-2016 00:00:00 13.56285 C 81.3472 % 10.43 C
940 04-04-2016 00:00:00 13.63299 C 81.7951 % 10.58 C
941 05-04-2016 00:00:00 11.25069 C 92.5313 % 10.09 C
942 06-04-2016 00:00:00 10.87153 C 79.3507 % 7.44 C
943 07-04-2016 00:00:00 8.49479 C 75.7014 % 4.46 C
944 08-04-2016 00:00:00 6.48403 C 79.6181 % 3.22 C
945 09-04-2016 00:00:00 8.00139 C 72.3785 % 3.34 C
946 10-04-2016 00:00:00 11.74757 C 69.9479 % 6.45 C
947 11-04-2016 00:00:00 12.00972 C 70.4757 % 6.81 C
948 12-04-2016 00:00:00 11.31181 C 78.9861 % 7.8 C
949 13-04-2016 00:00:00 8.81354 C 93.8854 % 7.88 C
950 14-04-2016 00:00:00 10.59722 C 80.6215 % 7.41 C
Sensor: Nr:Datum:Temp:Feuchte:Taupunkt:
Aussen-T/F 951 15-04-2016 00:00:00 13.04618 C 74.1493 % 8.55 C
952 16-04-2016 00:00:00 11.99514 C 81.5035 % 8.93 C
953 17-04-2016 00:00:00 8.41111 C 77.1875 % 4.65 C
954 18-04-2016 00:00:00 7.11632 C 74.6910 % 2.94 C
955 19-04-2016 00:00:00 8.83507 C 72.7292 % 4.22 C
956 20-04-2016 00:00:00 9.1559 C 66.4826 % 3.25 C
957 21-04-2016 00:00:00 11.43229 C 64.2431 % 4.93 C
958 22-04-2016 00:00:00 13.17674 C 62.2014 % 6.11 C
959 23-04-2016 00:00:00 7.88299 C 78.2292 % 4.33 C
960 24-04-2016 00:00:00 5.24444 C 78.5243 % 1.82 C
961 25-04-2016 00:00:00 4.71632 C 85.9792 % 2.58 C
962 26-04-2016 00:00:00 4.5934 C 82.9306 % 1.95 C
963 27-04-2016 00:00:00 5.57465 C 78.2847 % 2.1 C
964 28-04-2016 00:00:00 6.65 C 71.1007 % 1.8 C
965 29-04-2016 00:00:00 7.88056 C 69.0972 % 2.58 C
966 30-04-2016 00:00:00 7.70174 C 83.3611 % 5.06 C
967 01-05-2016 00:00:00 10.10486 C 81.5451 % 7.09 C
968 02-05-2016 00:00:00 12.06389 C 73.2674 % 7.43 C
969 03-05-2016 00:00:00 10.93785 C 75.7222 % 6.83 C
970 04-05-2016 00:00:00 9.10035 C 68.4063 % 3.6 C
971 05-05-2016 00:00:00 11.45347 C 67.3507 % 5.63 C
972 06-05-2016 00:00:00 15.34618 C 68.6806 % 9.63 C
973 07-05-2016 00:00:00 16.83542 C 65.2604 % 10.28 C
974 08-05-2016 00:00:00 18.59861 C 52.5521 % 8.72 C
975 09-05-2016 00:00:00 18.28715 C 61.7326 % 10.82 C
Sensor: Nr:Datum:Temp:Feuchte:Taupunkt:
Aussen-T/F 976 10-05-2016 00:00:00 17.08646 C 77.6076 % 13.15 C
977 11-05-2016 00:00:00 17.43438 C 75.9340 % 13.15 C
978 12-05-2016 00:00:00 17.84271 C 69.8472 % 12.27 C
979 13-05-2016 00:00:00 14.31736 C 89.5903 % 12.63 C
980 14-05-2016 00:00:00 10.45972 C 71.9549 % 5.63 C
981 15-05-2016 00:00:00 9.07743 C 70.0069 % 3.91 C
982 16-05-2016 00:00:00 9.98819 C 70.5069 % 4.88 C
983 17-05-2016 00:00:00 12.31563 C 69.0139 % 6.8 C
984 18-05-2016 00:00:00 14.47535 C 74.1007 % 9.92 C
985 19-05-2016 00:00:00 14.04722 C 75.6667 % 9.82 C
986 20-05-2016 00:00:00 14.08125 C 79.6771 % 10.63 C
987 21-05-2016 00:00:00 17.67708 C 74.5382 % 13.1 C
988 22-05-2016 00:00:00 18.70312 C 72.9201 % 13.75 C
989 23-05-2016 00:00:00 14.01632 C 83.2743 % 11.23 C
990 24-05-2016 00:00:00 10.97431 C 91.3264 % 9.62 C
991 25-05-2016 00:00:00 12.7125 C 87.5069 % 10.69 C
992 26-05-2016 00:00:00 14.89826 C 81.0938 % 11.69 C
993 27-05-2016 00:00:00 16.77849 C 90.6534 % 15.24 C
994 28-05-2016 00:00:00 18.08383 C 88.8922 % 16.22 C
995 29-05-2016 00:00:00 17.36528 C 89.6007 % 15.64 C
996 30-05-2016 00:00:00 17.49722 C 93.2639 % 16.4 C
997 31-05-2016 00:00:00 16.51458 C 87.4861 % 14.43 C
998 01-06-2016 00:00:00 15.69931 C 94.7153 % 14.85 C
999 02-06-2016 00:00:00 17.51979 C 92.0035 % 16.21 C
1000 03-06-2016 00:00:00 16.76875 C 94.6806 % 15.91 C
Sensor: Nr:Datum:Temp:Feuchte:Taupunkt:
Aussen-T/F 1001 04-06-2016 00:00:00 17.85104 C 90.8472 % 16.34 C
1002 05-06-2016 00:00:00 19.18611 C 89.0486 % 17.34 C
1003 06-06-2016 00:00:00 19.18785 C 86.9896 % 16.97 C
1004 07-06-2016 00:00:00 19.88403 C 82.1597 % 16.75 C
1005 08-06-2016 00:00:00 19.56354 C 77.2500 % 15.47 C
1006 09-06-2016 00:00:00 17.3191 C 71.5556 % 12.13 C
1007 10-06-2016 00:00:00 16.15521 C 71.4444 % 10.99 C
1008 11-06-2016 00:00:00 17.56701 C 74.5035 % 12.99 C
1009 12-06-2016 00:00:00 17.18299 C 86.9931 % 15 C
1010 13-06-2016 00:00:00 15.94479 C 94.8472 % 15.12 C
1011 14-06-2016 00:00:00 16.36597 C 87.8507 % 14.35 C
1012 15-06-2016 00:00:00 15.42431 C 86.9340 % 13.26 C
1013 16-06-2016 00:00:00 13.77292 C 93.5903 % 12.76 C
1014 17-06-2016 00:00:00 14.68889 C 90.7882 % 13.2 C
1015 18-06-2016 00:00:00 14.84861 C 87.4549 % 12.79 C
1016 19-06-2016 00:00:00 15.40278 C 75.9653 % 11.19 C
1017 20-06-2016 00:00:00 14.61979 C 81.8958 % 11.56 C
1018 21-06-2016 00:00:00 18.21736 C 88.4757 % 16.28 C
1019 22-06-2016 00:00:00 20.84792 C 87.8333 % 18.76 C
1020 23-06-2016 00:00:00 23.76528 C 81.5243 % 20.41 C
1021 24-06-2016 00:00:00 22.11979 C 90.4826 % 20.49 C
1022 25-06-2016 00:00:00 16.85451 C 95.9306 % 16.2 C
1023 26-06-2016 00:00:00 15.41562 C 85.3854 % 12.98 C
1024 27-06-2016 00:00:00 15.91562 C 86.7743 % 13.72 C
1025 28-06-2016 00:00:00 18.26597 C 84.3646 % 15.58 C
Sensor: Nr:Datum:Temp:Feuchte:Taupunkt:
Aussen-T/F 1026 29-06-2016 00:00:00 19.04444 C 74.5521 % 14.42 C
1027 30-06-2016 00:00:00 18.7566 C 80.8264 % 15.4 C
1028 01-07-2016 00:00:00 19.88194 C 81.0556 % 16.54 C
1029 02-07-2016 00:00:00 16.90868 C 78.6840 % 13.18 C
1030 03-07-2016 00:00:00 15.21559 C 83.5437 % 12.45 C
1031 04-07-2016 00:00:00 17.43333 C 82.9201 % 14.5 C
1032 05-07-2016 00:00:00 19.40903 C 78.1979 % 15.51 C
1033 06-07-2016 00:00:00 16.61042 C 74.0104 % 11.96 C
1034 07-07-2016 00:00:00 17.08576 C 77.8785 % 13.2 C
1035 08-07-2016 00:00:00 18.87222 C 80.7292 % 15.49 C
1036 09-07-2016 00:00:00 21.08889 C 76.2778 % 16.75 C
1037 10-07-2016 00:00:00 21.92535 C 79.2431 % 18.17 C
1038 11-07-2016 00:00:00 21.61701 C 73.7326 % 16.73 C
1039 12-07-2016 00:00:00 19.06354 C 74.7049 % 14.47 C
1040 13-07-2016 00:00:00 14.71319 C 91.3750 % 13.32 C
1041 14-07-2016 00:00:00 14.94583 C 79.4063 % 11.42 C
1042 15-07-2016 00:00:00 16.08229 C 74.0417 % 11.46 C
1043 16-07-2016 00:00:00 16.98542 C 83.0451 % 14.09 C
1044 17-07-2016 00:00:00 21.34757 C 80.4132 % 17.84 C
1045 18-07-2016 00:00:00 21.85069 C 75.3924 % 17.3 C
1046 19-07-2016 00:00:00 21.61667 C 78.1597 % 17.65 C
1047 20-07-2016 00:00:00 23.34097 C 74.8785 % 18.63 C
1048 21-07-2016 00:00:00 21.23924 C 86.6632 % 18.93 C
1049 22-07-2016 00:00:00 20.96806 C 88.7674 % 19.04 C
1050 23-07-2016 00:00:00 20.3434 C 91.5104 % 18.91 C
Sensor: Nr:Datum:Temp:Feuchte:Taupunkt:
Aussen-T/F 1051 24-07-2016 00:00:00 22.0941 C 85.4583 % 19.54 C
1052 25-07-2016 00:00:00 21.8191 C 81.6910 % 18.55 C
1053 26-07-2016 00:00:00 20.20208 C 86.3333 % 17.85 C
1054 27-07-2016 00:00:00 19.62986 C 81.0313 % 16.29 C
1055 28-07-2016 00:00:00 20.20174 C 82.7986 % 17.18 C
1056 29-07-2016 00:00:00 19.81042 C 85.1319 % 17.24 C
1057 30-07-2016 00:00:00 20.55278 C 78.7326 % 16.73 C
1058 31-07-2016 00:00:00 18.14444 C 80.7535 % 14.79 C
1059 01-08-2016 00:00:00 16.63958 C 78.4757 % 12.88 C
1060 02-08-2016 00:00:00 16.16875 C 92.2986 % 14.92 C
1061 03-08-2016 00:00:00 18.55174 C 94.0938 % 17.58 C
1062 04-08-2016 00:00:00 18.01667 C 94.7188 % 17.16 C
1063 05-08-2016 00:00:00 16.58403 C 88.5486 % 14.69 C
1064 06-08-2016 00:00:00 17.59097 C 86.3924 % 15.29 C
1065 07-08-2016 00:00:00 18.92153 C 81.4306 % 15.67 C
1066 08-08-2016 00:00:00 19.25521 C 77.6701 % 15.26 C
1067 09-08-2016 00:00:00 16.42986 C 72.2361 % 11.42 C
1068 10-08-2016 00:00:00 13.02465 C 80.0243 % 9.66 C
1069 11-08-2016 00:00:00 12.3 C 83.5417 % 9.6 C
1070 12-08-2016 00:00:00 17.31701 C 90.8264 % 15.8 C
1071 13-08-2016 00:00:00 20.62604 C 78.3715 % 16.73 C
1072 14-08-2016 00:00:00 19.08924 C 80.5139 % 15.66 C
1073 15-08-2016 00:00:00 18.95451 C 78.0243 % 15.04 C
1074 16-08-2016 00:00:00 18.07778 C 75.1632 % 13.61 C
1075 17-08-2016 00:00:00 18.14653 C 73.3785 % 13.31 C
Sensor: Nr:Datum:Temp:Feuchte:Taupunkt:
Aussen-T/F 1076 18-08-2016 00:00:00 17.22743 C 82.1597 % 14.16 C
1077 19-08-2016 00:00:00 19.36181 C 83.5174 % 16.5 C
1078 20-08-2016 00:00:00 18.84757 C 83.1701 % 15.93 C
1079 21-08-2016 00:00:00 17.07361 C 80.3611 % 13.67 C
1080 22-08-2016 00:00:00 17.30799 C 84.0833 % 14.59 C
1081 23-08-2016 00:00:00 19.09167 C 77.7708 % 15.12 C
1082 24-08-2016 00:00:00 20.54583 C 77.3750 % 16.45 C
1083 25-08-2016 00:00:00 21.59896 C 76.2118 % 17.23 C
1084 26-08-2016 00:00:00 22.53715 C 76.8542 % 18.27 C
1085 27-08-2016 00:00:00 23.96528 C 78.7674 % 20.05 C
1086 28-08-2016 00:00:00 23.4684 C 72.0660 % 18.14 C
1087 29-08-2016 00:00:00 18.98993 C 79.2326 % 15.31 C
1088 30-08-2016 00:00:00 18.11736 C 75.7917 % 13.78 C
1089 31-08-2016 00:00:00 17.84514 C 77.5278 % 13.86 C
1090 01-09-2016 00:00:00 19.62431 C 75.6736 % 15.21 C
1091 02-09-2016 00:00:00 18.78785 C 78.7361 % 15.02 C
1092 03-09-2016 00:00:00 20.71944 C 73.6319 % 15.84 C
1093 04-09-2016 00:00:00 18.18681 C 81.7396 % 15.02 C
1094 05-09-2016 00:00:00 17.73715 C 79.3021 % 14.11 C
1095 06-09-2016 00:00:00 16.62882 C 82.0938 % 13.56 C
1096 07-09-2016 00:00:00 17.39792 C 80.3299 % 13.98 C
1097 08-09-2016 00:00:00 19.44722 C 79.7535 % 15.86 C
1098 09-09-2016 00:00:00 20.12222 C 70.5451 % 14.6 C
1099 10-09-2016 00:00:00 19.21944 C 81.0729 % 15.89 C
1100 11-09-2016 00:00:00 18.8684 C 76.5243 % 14.65 C
Sensor: Nr:Datum:Temp:Feuchte:Taupunkt:
Aussen-T/F 1101 12-09-2016 00:00:00 19.58437 C 79.0764 % 15.86 C
1102 13-09-2016 00:00:00 21.20937 C 77.7431 % 17.17 C
1103 14-09-2016 00:00:00 20.91319 C 74.3924 % 16.19 C
1104 15-09-2016 00:00:00 20.02847 C 76.3229 % 15.74 C
1105 16-09-2016 00:00:00 17.33889 C 85.6076 % 14.9 C
1106 17-09-2016 00:00:00 15.96146 C 85.0660 % 13.45 C
1107 18-09-2016 00:00:00 17.13993 C 89.9549 % 15.48 C
1108 19-09-2016 00:00:00 15.49201 C 84.4688 % 12.89 C
1109 20-09-2016 00:00:00 14.8184 C 88.4965 % 12.94 C
1110 21-09-2016 00:00:00 13.86563 C 78.4618 % 10.19 C
1111 22-09-2016 00:00:00 11.70625 C 84.6944 % 9.22 C
1112 23-09-2016 00:00:00 13.62518 C 86.6383 % 11.44 C
1113 24-09-2016 00:00:00 13.82326 C 85.2188 % 11.39 C
1114 25-09-2016 00:00:00 14.39201 C 85.4653 % 11.99 C
1115 26-09-2016 00:00:00 14.99062 C 86.0799 % 12.68 C
1116 27-09-2016 00:00:00 13.42847 C 93.2951 % 12.37 C
1117 28-09-2016 00:00:00 15.2816 C 85.6632 % 12.9 C
1118 29-09-2016 00:00:00 18.69375 C 79.3299 % 15.04 C
1119 30-09-2016 00:00:00 15.12813 C 89.0451 % 13.34 C
1120 01-10-2016 00:00:00 13.55804 C 95.6643 % 12.88 C
1121 02-10-2016 00:00:00 12.49271 C 89.3333 % 10.79 C
1122 03-10-2016 00:00:00 12.49236 C 92.3958 % 11.29 C
1123 04-10-2016 00:00:00 10.89931 C 93.8333 % 9.95 C
1124 05-10-2016 00:00:00 8.62465 C 83.2986 % 5.96 C
1125 06-10-2016 00:00:00 7.98125 C 88.4201 % 6.19 C
Sensor: Nr:Datum:Temp:Feuchte:Taupunkt:
Aussen-T/F 1126 07-10-2016 00:00:00 10.85069 C 93.5208 % 9.85 C
1127 08-10-2016 00:00:00 9.28854 C 94.1042 % 8.39 C
1128 09-10-2016 00:00:00 8.50868 C 91.9167 % 7.27 C
1129 10-10-2016 00:00:00 6.46875 C 92.8993 % 5.41 C
1130 11-10-2016 00:00:00 7.98993 C 90.9514 % 6.61 C
1131 12-10-2016 00:00:00 8.69201 C 90.6111 % 7.24 C
1132 13-10-2016 00:00:00 7.54583 C 87.7118 % 5.64 C
1133 14-10-2016 00:00:00 9.31042 C 87.7674 % 7.39 C
1134 15-10-2016 00:00:00 11.21667 C 90.9028 % 9.79 C
1135 16-10-2016 00:00:00 8.72222 C 95.3646 % 8.02 C
1136 17-10-2016 00:00:00 10.64132 C 96.5833 % 10.12 C
1137 18-10-2016 00:00:00 11.33924 C 92.4236 % 10.16 C
1138 19-10-2016 00:00:00 9.26389 C 89.1597 % 7.57 C
1139 20-10-2016 00:00:00 8.03368 C 95.9097 % 7.42 C
1140 21-10-2016 00:00:00 7.65845 C 95.9498 % 7.05 C
1141 22-10-2016 00:00:00 7.80729 C 96.0000 % 7.21 C
1142 23-10-2016 00:00:00 6.84236 C 95.3368 % 6.15 C
1143 24-10-2016 00:00:00 9.37778 C 96.9931 % 8.93 C
1144 25-10-2016 00:00:00 11.21424 C 95.8507 % 10.58 C
1145 26-10-2016 00:00:00 9.47049 C 94.1597 % 8.58 C
1146 27-10-2016 00:00:00 8.9309 C 95.3750 % 8.23 C
1147 28-10-2016 00:00:00 11.35833 C 91.6597 % 10.05 C
1148 29-10-2016 00:00:00 11.58854 C 90.4965 % 10.09 C
1149 30-10-2016 00:00:00 7.61215 C 95.8229 % 6.99 C
1150 31-10-2016 00:00:00 7.10417 C 96.0694 % 6.52 C
Sensor: Nr:Datum:Temp:Feuchte:Taupunkt:
Aussen-T/F 1151 01-11-2016 00:00:00 6.92431 C 97.0694 % 6.49 C
1152 02-11-2016 00:00:00 7.39618 C 91.7292 % 6.14 C
1153 03-11-2016 00:00:00 6.31493 C 91.8819 % 5.09 C
1154 04-11-2016 00:00:00 4.72674 C 94.8819 % 3.98 C
1155 05-11-2016 00:00:00 6.88299 C 96.7118 % 6.4 C
1156 06-11-2016 00:00:00 5.54201 C 89.6458 % 3.98 C
1157 07-11-2016 00:00:00 4.69097 C 93.6354 % 3.75 C
1158 08-11-2016 00:00:00 3.20521 C 92.4167 % 2.1 C
1159 09-11-2016 00:00:00 3.69722 C 94.5417 % 2.9 C
1160 10-11-2016 00:00:00 5.22847 C 94.8403 % 4.47 C
1161 11-11-2016 00:00:00 5.08785 C 96.2569 % 4.54 C
1162 12-11-2016 00:00:00 2.06181 C 93.0764 % 1.06 C
1163 13-11-2016 00:00:00 2.12049 C 91.5347 % 0.89 C
1164 14-11-2016 00:00:00 -0.38611 C 93.0799 % -1.37 C
1165 15-11-2016 00:00:00 4.75208 C 92.9931 % 3.72 C
1166 16-11-2016 00:00:00 9.88715 C 95.6910 % 9.23 C
1167 17-11-2016 00:00:00 10.99757 C 89.4340 % 9.33 C
1168 18-11-2016 00:00:00 9.44792 C 85.6667 % 7.17 C
1169 19-11-2016 00:00:00 5.51319 C 87.6146 % 3.63 C
1170 20-11-2016 00:00:00 9.3559 C 81.1806 % 6.3 C
1171 21-11-2016 00:00:00 10.27813 C 92.0208 % 9.04 C
1172 22-11-2016 00:00:00 10.22222 C 93.8160 % 9.27 C
1173 23-11-2016 00:00:00 8.56389 C 96.9931 % 8.11 C
1174 24-11-2016 00:00:00 8.79306 C 94.5590 % 7.97 C
1175 25-11-2016 00:00:00 7.72222 C 85.3924 % 5.43 C
Sensor: Nr:Datum:Temp:Feuchte:Taupunkt:
Aussen-T/F 1176 26-11-2016 00:00:00 6.87708 C 88.3542 % 5.09 C
1177 27-11-2016 00:00:00 5.11215 C 92.9514 % 4.07 C
1178 28-11-2016 00:00:00 -0.13333 C 93.4583 % -1.06 C
1179 29-11-2016 00:00:00 -2.74097 C 91.0382 % -4 C
1180 30-11-2016 00:00:00 -2.71076 C 92.1319 % -3.81 C
1181 01-12-2016 00:00:00 3.3875 C 84.6354 % 1.05 C
1182 02-12-2016 00:00:00 5.17361 C 93.7917 % 4.26 C
1183 03-12-2016 00:00:00 -0.32882 C 96.9410 % -0.75 C
1184 04-12-2016 00:00:00 -2.61215 C 96.1840 % -3.13 C
1185 05-12-2016 00:00:00 -3.83507 C 95.3438 % -4.47 C
1186 06-12-2016 00:00:00 -3.15903 C 95.5972 % -3.76 C
1187 07-12-2016 00:00:00 -0.29965 C 96.1111 % -0.84 C
1188 08-12-2016 00:00:00 1.07778 C 94.8542 % 0.35 C
1189 09-12-2016 00:00:00 6.58819 C 84.4861 % 4.17 C
1190 10-12-2016 00:00:00 5.04201 C 91.7743 % 3.82 C
1191 11-12-2016 00:00:00 8.10174 C 85.5174 % 5.82 C
1192 12-12-2016 00:00:00 6.76563 C 92.9792 % 5.71 C
1193 13-12-2016 00:00:00 4.10868 C 96.3160 % 3.58 C
1194 14-12-2016 00:00:00 6.42569 C 95.7986 % 5.81 C
1195 15-12-2016 00:00:00 6.89583 C 94.3924 % 6.06 C
1196 16-12-2016 00:00:00 4.60451 C 88.2778 % 2.84 C
1197 17-12-2016 00:00:00 3.86806 C 91.7222 % 2.65 C
1198 18-12-2016 00:00:00 5.3059 C 94.3750 % 4.48 C
1199 19-12-2016 00:00:00 4.3816 C 89.4236 % 2.8 C
1200 20-12-2016 00:00:00 1.0875 C 91.6424 % -0.12 C
Sensor: Nr:Datum:Temp:Feuchte:Taupunkt:
Aussen-T/F 1201 21-12-2016 00:00:00 2.26076 C 91.9444 % 1.09 C
1202 22-12-2016 00:00:00 3.84896 C 93.6701 % 2.92 C
1203 23-12-2016 00:00:00 4.14757 C 95.4340 % 3.48 C
1204 24-12-2016 00:00:00 7.17188 C 86.6597 % 5.1 C
1205 25-12-2016 00:00:00 8.5434 C 89.2674 % 6.88 C
1206 26-12-2016 00:00:00 7.71215 C 88.2118 % 5.89 C
1207 27-12-2016 00:00:00 4.30139 C 88.8160 % 2.62 C
1208 28-12-2016 00:00:00 3.53819 C 90.0035 % 2.06 C
1209 29-12-2016 00:00:00 -1.78438 C 96.3299 % -2.29 C
1210 30-12-2016 00:00:00 -2.37014 C 96.3924 % -2.86 C
1211 31-12-2016 00:00:00 -4.09028 C 95.6424 % -4.68 C
1212 01-01-2017 00:00:00 -2.24792 C 95.3854 % -2.88 C
1213 02-01-2017 00:00:00 0.68021 C 94.3229 % -0.12 C
1214 03-01-2017 00:00:00 1.83819 C 91.4340 % 0.59 C
1215 04-01-2017 00:00:00 3.52049 C 90.0556 % 2.05 C
1216 05-01-2017 00:00:00 0.04687 C 83.2813 % -2.44 C
1217 06-01-2017 00:00:00 -6.48125 C 90.3090 % -7.8 C
1218 07-01-2017 00:00:00 -4.20694 C 86.7674 % -6.08 C
1219 08-01-2017 00:00:00 0.59306 C 95.4583 % -0.05 C
1220 09-01-2017 00:00:00 2.15 C 93.8819 % 1.27 C
1221 10-01-2017 00:00:00 1.40799 C 95.5625 % 0.78 C
1222 11-01-2017 00:00:00 3.72639 C 93.5799 % 2.79 C
1223 12-01-2017 00:00:00 4.3066 C 88.2396 % 2.54 C
1224 13-01-2017 00:00:00 2.18576 C 91.4097 % 0.94 C
1225 14-01-2017 00:00:00 2.66806 C 85.3611 % 0.46 C
Sensor: Nr:Datum:Temp:Feuchte:Taupunkt:
Aussen-T/F 1226 15-01-2017 00:00:00 0.83819 C 92.1910 % -0.28 C
1227 16-01-2017 00:00:00 -1.62361 C 93.6910 % -2.5 C
1228 17-01-2017 00:00:00 -3.91493 C 91.1875 % -5.14 C
1229 18-01-2017 00:00:00 -5.38646 C 91.6875 % -6.52 C
1230 19-01-2017 00:00:00 -6.17292 C 92.2153 % -7.23 C
1231 20-01-2017 00:00:00 -6.54167 C 91.1458 % -7.74 C
1232 21-01-2017 00:00:00 -5.94167 C 92.0660 % -7.02 C
1233 22-01-2017 00:00:00 -7.48889 C 92.6806 % -8.47 C
1234 23-01-2017 00:00:00 -5.41458 C 93.0035 % -6.36 C
1235 24-01-2017 00:00:00 -0.75035 C 91.2257 % -2 C
1236 25-01-2017 00:00:00 -1.16701 C 83.8021 % -3.55 C
1237 26-01-2017 00:00:00 -1.71667 C 84.5069 % -3.98 C
1238 27-01-2017 00:00:00 -3.44306 C 90.2188 % -4.81 C
1239 28-01-2017 00:00:00 -1.90347 C 90.7083 % -3.22 C
1240 29-01-2017 00:00:00 2.8691 C 91.9722 % 1.7 C
1241 30-01-2017 00:00:00 4.73507 C 94.6528 % 3.95 C
1242 31-01-2017 00:00:00 3.29583 C 91.5174 % 2.05 C
1243 01-02-2017 00:00:00 3.48611 C 87.9896 % 1.69 C
1244 02-02-2017 00:00:00 5.1434 C 94.4132 % 4.32 C
1245 03-02-2017 00:00:00 5.66007 C 94.2396 % 4.81 C
1246 04-02-2017 00:00:00 6.00556 C 89.9549 % 4.49 C
1247 05-02-2017 00:00:00 4.83993 C 91.1181 % 3.52 C
1248 06-02-2017 00:00:00 3.82396 C 89.6493 % 2.28 C
1249 07-02-2017 00:00:00 4.2184 C 89.5347 % 2.66 C
1250 08-02-2017 00:00:00 2.98785 C 85.8160 % 0.85 C
Sensor: Nr:Datum:Temp:Feuchte:Taupunkt:
Aussen-T/F 1251 09-02-2017 00:00:00 0.05903 C 84.0729 % -2.3 C
1252 10-02-2017 00:00:00 0.67222 C 82.7813 % -1.91 C
1253 11-02-2017 00:00:00 1.79896 C 93.6910 % 0.89 C
1254 12-02-2017 00:00:00 2.74132 C 92.1215 % 1.59 C
1255 13-02-2017 00:00:00 3.48576 C 82.9653 % 0.87 C
1256 14-02-2017 00:00:00 1.66042 C 85.0833 % -0.57 C
1257 15-02-2017 00:00:00 2.27639 C 90.1181 % 0.83 C
1258 16-02-2017 00:00:00 4.06597 C 95.0382 % 3.34 C
1259 17-02-2017 00:00:00 6.02222 C 95.7882 % 5.4 C
1260 18-02-2017 00:00:00 5.94097 C 89.9375 % 4.42 C
1261 19-02-2017 00:00:00 3.47083 C 91.4722 % 2.22 C
1262 20-02-2017 00:00:00 8.45104 C 91.1111 % 7.09 C
1263 21-02-2017 00:00:00 10.41458 C 92.1806 % 9.2 C
1264 22-02-2017 00:00:00 11.10243 C 86.9167 % 9.01 C
1265 23-02-2017 00:00:00 9.37708 C 82.3160 % 6.52 C
1266 24-02-2017 00:00:00 5.21007 C 80.1215 % 2.07 C
1267 25-02-2017 00:00:00 3.83993 C 84.8889 % 1.54 C
1268 26-02-2017 00:00:00 8.62951 C 75.2188 % 4.5 C
1269 27-02-2017 00:00:00 10.96042 C 73.1771 % 6.35 C
1270 28-02-2017 00:00:00 5.79618 C 82.1285 % 2.99 C
1271 01-03-2017 00:00:00 6.67257 C 86.8229 % 4.64 C
1272 02-03-2017 00:00:00 8.27986 C 68.5764 % 2.85 C
1273 03-03-2017 00:00:00 6.21771 C 76.6840 % 2.44 C
1274 04-03-2017 00:00:00 10.95451 C 72.5382 % 6.22 C
1275 05-03-2017 00:00:00 7.21354 C 86.9063 % 5.18 C
Sensor: Nr:Datum:Temp:Feuchte:Taupunkt:
Aussen-T/F 1276 06-03-2017 00:00:00 6.48333 C 88.9306 % 4.79 C
1277 07-03-2017 00:00:00 6.06806 C 92.0243 % 4.87 C
1278 08-03-2017 00:00:00 5.01528 C 95.6597 % 4.38 C
1279 09-03-2017 00:00:00 11.11146 C 85.3472 % 8.75 C
1280 10-03-2017 00:00:00 7.4684 C 74.9896 % 3.33 C
1281 11-03-2017 00:00:00 6.7316 C 76.7847 % 2.95 C
1282 12-03-2017 00:00:00 6.62813 C 73.0590 % 2.15 C
1283 13-03-2017 00:00:00 6.71007 C 76.5278 % 2.88 C
1284 14-03-2017 00:00:00 9.45625 C 79.7708 % 6.14 C
1285 15-03-2017 00:00:00 10.41493 C 79.8819 % 7.1 C
1286 16-03-2017 00:00:00 8.32569 C 79.1250 % 4.93 C
1287 17-03-2017 00:00:00 8.68507 C 77.3438 % 4.95 C
1288 18-03-2017 00:00:00 9.53889 C 87.9514 % 7.64 C
1289 19-03-2017 00:00:00 12.1559 C 84.9444 % 9.7 C
1290 20-03-2017 00:00:00 11.60278 C 74.2986 % 7.19 C
1291 21-03-2017 00:00:00 9.375 C 83.3090 % 6.69 C
1292 22-03-2017 00:00:00 5.39132 C 87.9861 % 3.57 C
1293 23-03-2017 00:00:00 8.8434 C 81.9097 % 5.93 C
1294 24-03-2017 00:00:00 9.49444 C 76.3194 % 5.54 C
1295 25-03-2017 00:00:00 9.21424 C 65.5590 % 3.11 C
1296 26-03-2017 00:00:00 9.36594 C 63.8080 % 2.87 C
1297 27-03-2017 00:00:00 8.83194 C 64.8194 % 2.59 C
1298 28-03-2017 00:00:00 10.73819 C 69.2431 % 5.34 C
1299 29-03-2017 00:00:00 12.89063 C 73.7014 % 8.31 C
1300 30-03-2017 00:00:00 14.33507 C 72.3819 % 9.44 C
Sensor: Nr:Datum:Temp:Feuchte:Taupunkt:
Aussen-T/F 1301 31-03-2017 00:00:00 13.69896 C 69.0938 % 8.14 C
1302 01-04-2017 00:00:00 13.59792 C 71.9792 % 8.65 C
1303 02-04-2017 00:00:00 11.71736 C 74.2222 % 7.29 C
1304 03-04-2017 00:00:00 10.47257 C 76.1042 % 6.45 C
1305 04-04-2017 00:00:00 9.3059 C 73.6285 % 4.85 C
1306 05-04-2017 00:00:00 8.78889 C 75.9444 % 4.79 C
1307 06-04-2017 00:00:00 8.65278 C 73.7292 % 4.23 C
1308 07-04-2017 00:00:00 11.31566 C 70.4578 % 6.14 C
1309 08-04-2017 00:00:00 14.59887 C 63.6780 % 7.8 C
1310 09-04-2017 00:00:00 12.46215 C 72.6910 % 7.7 C
1311 10-04-2017 00:00:00 10.93993 C 75.5174 % 6.79 C
1312 11-04-2017 00:00:00 9.67188 C 68.7778 % 4.22 C
1313 12-04-2017 00:00:00 11.34167 C 67.3993 % 5.53 C
1314 13-04-2017 00:00:00 11.57153 C 68.3403 % 5.95 C
1315 14-04-2017 00:00:00 9.77708 C 68.5660 % 4.28 C
1316 15-04-2017 00:00:00 9.0875 C 81.6493 % 6.12 C
1317 16-04-2017 00:00:00 7.52083 C 79.0590 % 4.13 C
1318 17-04-2017 00:00:00 6.82257 C 84.8090 % 4.45 C
1319 18-04-2017 00:00:00 5.52187 C 80.9167 % 2.51 C
1320 19-04-2017 00:00:00 4.23646 C 70.6042 % -0.62 C
1321 20-04-2017 00:00:00 4.68715 C 68.7882 % -0.54 C
1322 21-04-2017 00:00:00 7.98299 C 70.7431 % 3 C
1323 22-04-2017 00:00:00 9.60278 C 72.4063 % 4.89 C
1324 23-04-2017 00:00:00 7.34722 C 68.6632 % 1.98 C
1325 24-04-2017 00:00:00 8.25764 C 68.6424 % 2.84 C
Sensor: Nr:Datum:Temp:Feuchte:Taupunkt:
Aussen-T/F 1326 25-04-2017 00:00:00 8.07118 C 68.6493 % 2.67 C
1327 26-04-2017 00:00:00 7.03611 C 68.0208 % 1.55 C
1328 27-04-2017 00:00:00 7.07917 C 67.6528 % 1.51 C
1329 28-04-2017 00:00:00 6.15972 C 79.5104 % 2.89 C
1330 29-04-2017 00:00:00 8.79132 C 71.5069 % 3.93 C
1331 30-04-2017 00:00:00 11.04896 C 60.7951 % 3.78 C
1332 01-05-2017 00:00:00 10.13576 C 85.0347 % 7.74 C
1333 02-05-2017 00:00:00 9.00868 C 95.4549 % 8.32 C
1334 03-05-2017 00:00:00 10.15694 C 90.6042 % 8.69 C
1335 04-05-2017 00:00:00 11.64722 C 89.7361 % 10.02 C
1336 05-05-2017 00:00:00 11.58021 C 81.0417 % 8.44 C
1337 06-05-2017 00:00:00 12.91042 C 78.0139 % 9.17 C
1338 07-05-2017 00:00:00 13.1434 C 93.6319 % 12.14 C
1339 08-05-2017 00:00:00 9.64306 C 86.9063 % 7.57 C
1340 09-05-2017 00:00:00 9.69931 C 70.4861 % 4.6 C
1341 10-05-2017 00:00:00 10.29583 C 70.5590 % 5.19 C
1342 11-05-2017 00:00:00 14.23542 C 73.0590 % 9.48 C
1343 12-05-2017 00:00:00 15.89479 C 85.6250 % 13.49 C
1344 13-05-2017 00:00:00 17.24514 C 75.3472 % 12.85 C
1345 14-05-2017 00:00:00 16.17049 C 80.8993 % 12.89 C
1346 15-05-2017 00:00:00 15.43403 C 72.0104 % 10.42 C
1347 16-05-2017 00:00:00 18.86458 C 61.2049 % 11.24 C
1348 17-05-2017 00:00:00 20.20243 C 65.0521 % 13.43 C
1349 18-05-2017 00:00:00 17.96042 C 84.5729 % 15.32 C
1350 19-05-2017 00:00:00 13.45694 C 96.0694 % 12.84 C
Sensor: Nr:Datum:Temp:Feuchte:Taupunkt:
Aussen-T/F 1351 20-05-2017 00:00:00 12.04375 C 83.9931 % 9.43 C
1352 21-05-2017 00:00:00 13.43889 C 75.2118 % 9.14 C
1353 22-05-2017 00:00:00 16.05417 C 73.8090 % 11.39 C
1354 23-05-2017 00:00:00 18.46736 C 69.4410 % 12.78 C
1355 24-05-2017 00:00:00 16.81771 C 73.7639 % 12.11 C
1356 25-05-2017 00:00:00 18.59167 C 70.2604 % 13.07 C
1357 26-05-2017 00:00:00 18.71042 C 70.8472 % 13.31 C
1358 27-05-2017 00:00:00 21.17049 C 66.6285 % 14.72 C
1359 28-05-2017 00:00:00 21.21493 C 78.3993 % 17.31 C
1360 29-05-2017 00:00:00 23.54271 C 75.5660 % 18.97 C
1361 30-05-2017 00:00:00 21.97847 C 74.9549 % 17.33 C
1362 31-05-2017 00:00:00 18.61667 C 68.5278 % 12.72 C
1363 01-06-2017 00:00:00 18.99792 C 71.5590 % 13.74 C
1364 02-06-2017 00:00:00 19.04583 C 83.6771 % 16.22 C
1365 03-06-2017 00:00:00 18.89236 C 93.4132 % 17.81 C
1366 04-06-2017 00:00:00 16.44306 C 84.5556 % 13.83 C
1367 05-06-2017 00:00:00 16.50278 C 76.9792 % 12.46 C
1368 06-06-2017 00:00:00 15.18958 C 77.8750 % 11.36 C
1369 07-06-2017 00:00:00 13.87778 C 75.5347 % 9.63 C
1370 08-06-2017 00:00:00 18.08924 C 68.5382 % 12.21 C
1371 09-06-2017 00:00:00 16.93299 C 81.6319 % 13.77 C
1372 10-06-2017 00:00:00 17.78368 C 70.4792 % 12.35 C
1373 11-06-2017 00:00:00 20.38229 C 71.8993 % 15.15 C
1374 12-06-2017 00:00:00 20.21667 C 59.4410 % 12.07 C
1375 13-06-2017 00:00:00 17.4059 C 67.4549 % 11.32 C
Sensor: Nr:Datum:Temp:Feuchte:Taupunkt:
Aussen-T/F 1376 14-06-2017 00:00:00 18.66597 C 69.6042 % 13 C
1377 15-06-2017 00:00:00 21.18299 C 70.3333 % 15.57 C
1378 16-06-2017 00:00:00 18.97743 C 62.8646 % 11.75 C
1379 17-06-2017 00:00:00 17.05035 C 76.4444 % 12.88 C
1380 18-06-2017 00:00:00 21.54514 C 69.8229 % 15.8 C
1381 19-06-2017 00:00:00 22.06667 C 64.3160 % 15.02 C
1382 20-06-2017 00:00:00 23.55069 C 62.5590 % 15.99 C
1383 21-06-2017 00:00:00 25.2191 C 62.1146 % 17.45 C
1384 22-06-2017 00:00:00 23.325 C 77.8264 % 19.23 C
1385 23-06-2017 00:00:00 22.47014 C 68.4063 % 16.36 C
1386 24-06-2017 00:00:00 20.09028 C 64.8924 % 13.28 C
1387 25-06-2017 00:00:00 20.12639 C 70.0938 % 14.51 C
1388 26-06-2017 00:00:00 21.1184 C 67.1667 % 14.79 C
1389 27-06-2017 00:00:00 18.80104 C 85.3229 % 16.29 C
1390 28-06-2017 00:00:00 19.80208 C 90.8299 % 18.26 C
1391 29-06-2017 00:00:00 17.97535 C 86.2396 % 15.64 C
1392 30-06-2017 00:00:00 17.41624 C 77.3875 % 13.42 C
1393 01-07-2017 00:00:00 16.45451 C 89.6250 % 14.74 C
1394 02-07-2017 00:00:00 16.87188 C 88.2361 % 14.91 C
1395 03-07-2017 00:00:00 17.94201 C 72.9201 % 13.02 C
1396 04-07-2017 00:00:00 19.98993 C 68.9375 % 14.12 C
1397 05-07-2017 00:00:00 21.5875 C 69.0903 % 15.68 C
1398 06-07-2017 00:00:00 21.41701 C 76.5278 % 17.12 C
1399 07-07-2017 00:00:00 23.46076 C 73.7674 % 18.51 C
1400 08-07-2017 00:00:00 22.5559 C 70.5035 % 16.92 C
Sensor: Nr:Datum:Temp:Feuchte:Taupunkt:
Aussen-T/F 1401 09-07-2017 00:00:00 22.69271 C 74.1007 % 17.84 C
1402 10-07-2017 00:00:00 19.75243 C 93.9792 % 18.76 C
1403 11-07-2017 00:00:00 19.33264 C 81.8993 % 16.16 C
1404 12-07-2017 00:00:00 17.22951 C 89.4514 % 15.48 C
1405 13-07-2017 00:00:00 15.53958 C 75.6667 % 11.26 C
1406 14-07-2017 00:00:00 16.34653 C 77.4965 % 12.41 C
1407 15-07-2017 00:00:00 16.46389 C 74.5417 % 11.93 C
1408 16-07-2017 00:00:00 19.03924 C 81.1215 % 15.73 C
1409 17-07-2017 00:00:00 20.61007 C 81.2743 % 17.29 C
1410 18-07-2017 00:00:00 21.7625 C 75.4965 % 17.24 C
1411 19-07-2017 00:00:00 23.46806 C 73.3090 % 18.42 C
1412 20-07-2017 00:00:00 21.83889 C 79.5764 % 18.15 C
1413 21-07-2017 00:00:00 20.14583 C 71.6979 % 14.88 C
1414 22-07-2017 00:00:00 21.77813 C 82.2743 % 18.62 C
1415 23-07-2017 00:00:00 18.27639 C 78.7153 % 14.52 C
1416 24-07-2017 00:00:00 14.9816 C 91.3681 % 13.59 C
1417 25-07-2017 00:00:00 14.46979 C 96.2014 % 13.87 C
1418 26-07-2017 00:00:00 17.50729 C 86.0139 % 15.14 C
1419 27-07-2017 00:00:00 18.9184 C 89.6250 % 17.18 C
1420 28-07-2017 00:00:00 17.14236 C 83.5694 % 14.34 C
1421 29-07-2017 00:00:00 20.44271 C 81.0174 % 17.07 C
1422 30-07-2017 00:00:00 22.74236 C 73.6667 % 17.8 C
1423 31-07-2017 00:00:00 20.73542 C 77.8750 % 16.74 C
1424 01-08-2017 00:00:00 19.90799 C 94.6424 % 19.02 C
1425 02-08-2017 00:00:00 21.09306 C 86.4688 % 18.75 C
Sensor: Nr:Datum:Temp:Feuchte:Taupunkt:
Aussen-T/F 1426 03-08-2017 00:00:00 21.32153 C 83.4271 % 18.4 C
1427 04-08-2017 00:00:00 20.4309 C 76.2500 % 16.11 C
1428 05-08-2017 00:00:00 18.99826 C 79.7326 % 15.42 C
1429 06-08-2017 00:00:00 17.06181 C 74.4028 % 12.48 C
1430 07-08-2017 00:00:00 17.21319 C 74.5313 % 12.65 C
1431 08-08-2017 00:00:00 17.34063 C 86.7500 % 15.11 C
1432 09-08-2017 00:00:00 17.64167 C 77.9826 % 13.76 C
1433 10-08-2017 00:00:00 15.45139 C 94.6771 % 14.6 C
1434 11-08-2017 00:00:00 14.99271 C 95.3889 % 14.26 C
1435 12-08-2017 00:00:00 15.39965 C 94.4688 % 14.52 C
1436 13-08-2017 00:00:00 18.25694 C 84.2813 % 15.56 C
1437 14-08-2017 00:00:00 18.07396 C 87.2535 % 15.92 C
1438 15-08-2017 00:00:00 18.78299 C 93.5243 % 17.72 C
1439 16-08-2017 00:00:00 19.80486 C 87.2847 % 17.63 C
1440 17-08-2017 00:00:00 19.18438 C 87.3125 % 17.02 C
1441 18-08-2017 00:00:00 18.28819 C 94.1632 % 17.33 C
1442 19-08-2017 00:00:00 14.62049 C 90.6076 % 13.1 C
1443 20-08-2017 00:00:00 14.85243 C 86.3993 % 12.6 C
1444 21-08-2017 00:00:00 15.85833 C 82.2049 % 12.83 C
1445 22-08-2017 00:00:00 15.7316 C 84.9097 % 13.2 C
1446 23-08-2017 00:00:00 17.82812 C 84.2535 % 15.14 C
1447 24-08-2017 00:00:00 19.30625 C 82.1632 % 16.19 C
1448 25-08-2017 00:00:00 18.12049 C 89.3993 % 16.35 C
1449 26-08-2017 00:00:00 20.59861 C 92.9132 % 19.41 C
1450 27-08-2017 00:00:00 19.43507 C 89.5035 % 17.66 C
Sensor: Nr:Datum:Temp:Feuchte:Taupunkt:
Aussen-T/F 1451 28-08-2017 00:00:00 19.49063 C 85.7882 % 17.05 C
1452 29-08-2017 00:00:00 19.97986 C 86.3507 % 17.63 C
1453 30-08-2017 00:00:00 20.58819 C 89.0903 % 18.73 C
1454 31-08-2017 00:00:00 17.03194 C 87.1493 % 14.88 C
1455 01-09-2017 00:00:00 13.72639 C 88.3785 % 11.84 C
1456 02-09-2017 00:00:00 14.2625 C 89.4271 % 12.55 C
1457 03-09-2017 00:00:00 13.22257 C 87.7743 % 11.24 C
1458 04-09-2017 00:00:00 13.75208 C 90.0313 % 12.15 C
1459 05-09-2017 00:00:00 17.85347 C 90.3160 % 16.25 C
1460 06-09-2017 00:00:00 17.36389 C 78.5868 % 13.61 C
1461 07-09-2017 00:00:00 15.38472 C 80.6389 % 12.08 C
1462 08-09-2017 00:00:00 15.88958 C 80.7917 % 12.6 C
1463 09-09-2017 00:00:00 14.59236 C 91.5764 % 13.24 C
1464 10-09-2017 00:00:00 13.23924 C 88.7951 % 11.43 C
1465 11-09-2017 00:00:00 14.41667 C 84.9861 % 11.93 C
1466 12-09-2017 00:00:00 14.27674 C 84.4097 % 11.69 C
1467 13-09-2017 00:00:00 14.43993 C 87.5729 % 12.4 C
1468 14-09-2017 00:00:00 11.98194 C 92.1076 % 10.74 C
1469 15-09-2017 00:00:00 12.37917 C 88.0347 % 10.46 C
1470 16-09-2017 00:00:00 10.41007 C 88.3021 % 8.56 C
1471 17-09-2017 00:00:00 9.97118 C 94.9861 % 9.21 C
1472 18-09-2017 00:00:00 10.50764 C 90.8785 % 9.08 C
1473 19-09-2017 00:00:00 11.95903 C 92.7049 % 10.82 C
1474 20-09-2017 00:00:00 11.3184 C 92.6076 % 10.17 C
1475 21-09-2017 00:00:00 10.7559 C 92.2222 % 9.55 C
Sensor: Nr:Datum:Temp:Feuchte:Taupunkt:
Aussen-T/F 1476 22-09-2017 00:00:00 11.39757 C 92.7222 % 10.26 C
1477 23-09-2017 00:00:00 13.63785 C 89.4965 % 11.94 C
1478 24-09-2017 00:00:00 12.54826 C 93.5660 % 11.54 C
1479 25-09-2017 00:00:00 12.85729 C 92.9514 % 11.75 C
1480 26-09-2017 00:00:00 13.54097 C 92.1389 % 12.29 C
1481 27-09-2017 00:00:00 13.15069 C 94.1597 % 12.23 C
1482 28-09-2017 00:00:00 14.79861 C 93.9063 % 13.83 C
1483 29-09-2017 00:00:00 17.64722 C 91.7083 % 16.28 C
1484 30-09-2017 00:00:00 14.56597 C 95.2326 % 13.81 C
1485 01-10-2017 00:00:00 11.45937 C 95.0451 % 10.69 C
1486 02-10-2017 00:00:00 14.42951 C 92.9132 % 13.3 C
1487 03-10-2017 00:00:00 12.49618 C 88.9201 % 10.72 C
1488 04-10-2017 00:00:00 11.37812 C 88.0972 % 9.48 C
1489 05-10-2017 00:00:00 12.35868 C 85.7847 % 10.05 C
1490 06-10-2017 00:00:00 9.83438 C 91.6285 % 8.54 C
1491 07-10-2017 00:00:00 10.24653 C 89.7535 % 8.64 C
1492 08-10-2017 00:00:00 11.93993 C 93.6181 % 10.94 C
1493 09-10-2017 00:00:00 11.42222 C 93.6285 % 10.43 C
1494 10-10-2017 00:00:00 13.19062 C 93.1424 % 12.11 C
1495 11-10-2017 00:00:00 13.59722 C 90.6111 % 12.09 C
1496 12-10-2017 00:00:00 13.7684 C 84.9618 % 11.29 C
1497 13-10-2017 00:00:00 14.15556 C 91.8646 % 12.85 C
1498 14-10-2017 00:00:00 13.13611 C 95.3750 % 12.41 C
1499 15-10-2017 00:00:00 12.53021 C 95.9410 % 11.9 C
1500 16-10-2017 00:00:00 13.45347 C 95.6215 % 12.77 C
Sensor: Nr:Datum:Temp:Feuchte:Taupunkt:
Aussen-T/F 1501 17-10-2017 00:00:00 13.09201 C 95.8299 % 12.44 C
1502 18-10-2017 00:00:00 12.20313 C 95.8264 % 11.56 C
1503 19-10-2017 00:00:00 11.5059 C 95.8472 % 10.87 C
1504 20-10-2017 00:00:00 10.5122 C 88.5610 % 8.71 C
1505 21-10-2017 00:00:00 11.76076 C 91.4410 % 10.41 C
1506 22-10-2017 00:00:00 10.78507 C 85.4340 % 8.44 C
1507 23-10-2017 00:00:00 10.79653 C 87.4826 % 8.8 C
1508 24-10-2017 00:00:00 13.69826 C 91.2465 % 12.3 C
1509 25-10-2017 00:00:00 15.51111 C 87.4271 % 13.43 C
1510 26-10-2017 00:00:00 13.26736 C 91.1389 % 11.85 C
1511 27-10-2017 00:00:00 11.49132 C 89.5660 % 9.84 C
1512 28-10-2017 00:00:00 10.36076 C 83.1944 % 7.64 C
1513 29-10-2017 00:00:00 10.65694 C 82.5243 % 7.81 C
1514 30-10-2017 00:00:00 7.17326 C 85.5243 % 4.91 C
1515 31-10-2017 00:00:00 7.26806 C 85.6944 % 5.04 C
1516 01-11-2017 00:00:00 8.73021 C 85.5313 % 6.44 C
1517 02-11-2017 00:00:00 8.66389 C 87.8333 % 6.76 C
1518 03-11-2017 00:00:00 7.17014 C 93.6285 % 6.21 C
1519 04-11-2017 00:00:00 8.34132 C 94.7292 % 7.55 C
1520 05-11-2017 00:00:00 8.89965 C 92.2083 % 7.71 C
1521 06-11-2017 00:00:00 5.51424 C 92.8542 % 4.45 C
1522 07-11-2017 00:00:00 4.45868 C 95.0833 % 3.74 C
1523 08-11-2017 00:00:00 6.63854 C 96.5035 % 6.12 C
1524 09-11-2017 00:00:00 7.54028 C 95.7569 % 6.91 C
1525 10-11-2017 00:00:00 7.46563 C 90.7535 % 6.06 C
Sensor: Nr:Datum:Temp:Feuchte:Taupunkt:
Aussen-T/F 1526 11-11-2017 00:00:00 6.4559 C 93.8090 % 5.53 C
1527 12-11-2017 00:00:00 4.6809 C 96.1632 % 4.12 C
1528 13-11-2017 00:00:00 5.61111 C 92.8125 % 4.54 C
1529 14-11-2017 00:00:00 4.67951 C 94.3785 % 3.86 C
1530 15-11-2017 00:00:00 6.91389 C 90.0799 % 5.4 C
1531 16-11-2017 00:00:00 4.84201 C 93.1424 % 3.83 C
1532 17-11-2017 00:00:00 6.01007 C 95.7535 % 5.38 C
1533 18-11-2017 00:00:00 3.55278 C 91.3403 % 2.28 C
1534 19-11-2017 00:00:00 5.66389 C 89.5764 % 4.09 C
1535 20-11-2017 00:00:00 5.24618 C 91.6250 % 4 C
1536 21-11-2017 00:00:00 9.24063 C 90.6597 % 7.79 C
1537 22-11-2017 00:00:00 8.26528 C 88.1146 % 6.42 C
1538 23-11-2017 00:00:00 9.3059 C 88.0486 % 7.43 C
1539 24-11-2017 00:00:00 10.45451 C 92.4028 % 9.28 C
1540 25-11-2017 00:00:00 5.3059 C 95.5521 % 4.65 C
1541 26-11-2017 00:00:00 3.77986 C 88.7986 % 2.11 C
1542 27-11-2017 00:00:00 5.66632 C 87.1875 % 3.71 C
1543 28-11-2017 00:00:00 4.26181 C 94.5347 % 3.46 C
1544 29-11-2017 00:00:00 3.03576 C 95.4618 % 2.38 C
1545 30-11-2017 00:00:00 2.44201 C 95.3958 % 1.78 C
1546 01-12-2017 00:00:00 1.13021 C 95.6389 % 0.51 C
1547 02-12-2017 00:00:00 0.97604 C 94.2361 % 0.16 C
1548 03-12-2017 00:00:00 0.67674 C 93.3958 % -0.26 C
1549 04-12-2017 00:00:00 3.2816 C 95.5799 % 2.64 C
1550 05-12-2017 00:00:00 4.74826 C 93.4792 % 3.79 C
Sensor: Nr:Datum:Temp:Feuchte:Taupunkt:
Aussen-T/F 1551 06-12-2017 00:00:00 5.89792 C 90.1493 % 4.41 C
1552 07-12-2017 00:00:00 4.77986 C 86.2465 % 2.68 C
1553 08-12-2017 00:00:00 3.52014 C 88.7153 % 1.84 C
1554 09-12-2017 00:00:00 1.27569 C 83.4618 % -1.21 C
1555 10-12-2017 00:00:00 2.40903 C 88.7049 % 0.74 C
1556 11-12-2017 00:00:00 6.02118 C 93.7708 % 5.1 C
1557 12-12-2017 00:00:00 3.72292 C 84.9792 % 1.44 C
1558 13-12-2017 00:00:00 3.81597 C 89.6875 % 2.28 C
1559 14-12-2017 00:00:00 4.58611 C 90.0625 % 3.1 C
1560 15-12-2017 00:00:00 2.98611 C 95.5903 % 2.35 C
1561 16-12-2017 00:00:00 3.04167 C 95.9618 % 2.46 C
1562 17-12-2017 00:00:00 3.05208 C 92.1076 % 1.9 C
1563 18-12-2017 00:00:00 1.66944 C 95.4444 % 1.02 C
1564 19-12-2017 00:00:00 3.35556 C 97.1146 % 2.94 C
1565 20-12-2017 00:00:00 5.65625 C 97.6389 % 5.31 C
1566 21-12-2017 00:00:00 7.51667 C 97.5556 % 7.16 C
1567 22-12-2017 00:00:00 8.8125 C 97.8889 % 8.5 C
1568 23-12-2017 00:00:00 8.76389 C 93.7813 % 7.82 C
1569 24-12-2017 00:00:00 8.92292 C 88.6319 % 7.15 C
1570 25-12-2017 00:00:00 6.77708 C 85.7292 % 4.56 C
1571 26-12-2017 00:00:00 4.68299 C 90.7431 % 3.3 C
1572 27-12-2017 00:00:00 5.13993 C 92.8854 % 4.09 C
1573 28-12-2017 00:00:00 3.24826 C 88.2396 % 1.49 C
1574 29-12-2017 00:00:00 2.41944 C 88.1667 % 0.67 C
1575 30-12-2017 00:00:00 7.77187 C 90.7882 % 6.36 C
Sensor: Nr:Datum:Temp:Feuchte:Taupunkt:
Aussen-T/F 1576 31-12-2017 00:00:00 12.74549 C 82.5729 % 9.86 C
1577 01-01-2018 00:00:00 7.71458 C 84.2153 % 5.22 C
1578 02-01-2018 00:00:00 6.21076 C 88.1979 % 4.41 C
1579 03-01-2018 00:00:00 8.40313 C 84.5174 % 5.95 C
1580 04-01-2018 00:00:00 8.24792 C 89.7014 % 6.66 C
1581 05-01-2018 00:00:00 8.32257 C 89.6424 % 6.72 C
1582 06-01-2018 00:00:00 6.22188 C 96.7917 % 5.75 C
1583 07-01-2018 00:00:00 5.11458 C 92.0417 % 3.93 C
1584 08-01-2018 00:00:00 4.61597 C 89.1007 % 2.98 C
1585 09-01-2018 00:00:00 5.0191 C 93.0521 % 3.99 C
1586 10-01-2018 00:00:00 6.95243 C 92.3472 % 5.8 C
1587 11-01-2018 00:00:00 6.99653 C 95.0660 % 6.26 C
1588 12-01-2018 00:00:00 6.57708 C 95.7674 % 5.95 C
1589 13-01-2018 00:00:00 5.39062 C 89.7813 % 3.85 C
1590 14-01-2018 00:00:00 2.95174 C 85.5208 % 0.77 C
1591 15-01-2018 00:00:00 3.65833 C 91.1181 % 2.35 C
1592 16-01-2018 00:00:00 6.14618 C 85.7569 % 3.94 C
1593 17-01-2018 00:00:00 3.45868 C 86.7569 % 1.47 C
1594 18-01-2018 00:00:00 5.94167 C 81.9479 % 3.1 C
1595 19-01-2018 00:00:00 3.96146 C 86.6771 % 1.95 C
1596 20-01-2018 00:00:00 3.05937 C 91.0486 % 1.74 C
1597 21-01-2018 00:00:00 2.72951 C 93.5451 % 1.8 C
1598 22-01-2018 00:00:00 5.11563 C 93.7708 % 4.2 C
1599 23-01-2018 00:00:00 7.37049 C 88.6250 % 5.62 C
1600 24-01-2018 00:00:00 11.38021 C 86.3785 % 9.19 C
Sensor: Nr:Datum:Temp:Feuchte:Taupunkt:
Aussen-T/F 1601 25-01-2018 00:00:00 9.87465 C 92.0243 % 8.64 C
1602 26-01-2018 00:00:00 6.62222 C 95.7396 % 5.99 C
1603 27-01-2018 00:00:00 4.73299 C 95.1771 % 4.03 C
1604 28-01-2018 00:00:00 7.29028 C 89.6285 % 5.7 C
1605 29-01-2018 00:00:00 9.82882 C 85.7674 % 7.56 C
1606 30-01-2018 00:00:00 5.41111 C 90.5104 % 3.99 C
1607 31-01-2018 00:00:00 7.52153 C 91.0938 % 6.16 C
1608 01-02-2018 00:00:00 3.10243 C 90.1632 % 1.65 C
1609 02-02-2018 00:00:00 3.41285 C 90.8958 % 2.07 C
1610 03-02-2018 00:00:00 3.47118 C 87.7292 % 1.63 C
1611 04-02-2018 00:00:00 1.1434 C 87.0208 % -0.77 C
1612 05-02-2018 00:00:00 0.32431 C 82.9236 % -2.23 C
1613 06-02-2018 00:00:00 -0.78056 C 89.0174 % -2.36 C
1614 07-02-2018 00:00:00 -0.06111 C 91.5799 % -1.26 C
1615 08-02-2018 00:00:00 -2.18819 C 88.7396 % -3.79 C
1616 09-02-2018 00:00:00 -1.96007 C 92.3854 % -3.03 C
1617 10-02-2018 00:00:00 2.22257 C 88.0660 % 0.46 C
1618 11-02-2018 00:00:00 3.32535 C 86.3333 % 1.27 C
1619 12-02-2018 00:00:00 2.1059 C 85.9479 % 0.01 C
1620 13-02-2018 00:00:00 -0.32674 C 85.2257 % -2.5 C
1621 14-02-2018 00:00:00 -1.52222 C 83.5069 % -3.95 C
1622 15-02-2018 00:00:00 1.83299 C 89.2535 % 0.26 C
1623 16-02-2018 00:00:00 2.01597 C 96.2500 % 1.48 C
1624 17-02-2018 00:00:00 0.40521 C 93.6354 % -0.5 C
1625 18-02-2018 00:00:00 -1.01701 C 92.6701 % -2.05 C
Sensor: Nr:Datum:Temp:Feuchte:Taupunkt:
Aussen-T/F 1626 19-02-2018 00:00:00 1.11667 C 88.7049 % -0.53 C
1627 20-02-2018 00:00:00 0.74271 C 87.0313 % -1.16 C
1628 21-02-2018 00:00:00 1.21181 C 77.1493 % -2.34 C
1629 22-02-2018 00:00:00 -0.03507 C 74.0938 % -4.09 C
1630 23-02-2018 00:00:00 -0.725 C 62.2674 % -7.03 C
1631 24-02-2018 00:00:00 -1.57049 C 63.0625 % -7.67 C
1632 25-02-2018 00:00:00 -2.70729 C 52.6701 % -11.03 C
1633 26-02-2018 00:00:00 -4.18854 C 66.9375 % -9.4 C
1634 27-02-2018 00:00:00 -6.00417 C 70.8264 % -10.43 C
1635 28-02-2018 00:00:00 -6.7066 C 65.9757 % -11.99 C
1636 01-03-2018 00:00:00 -2.91424 C 54.5035 % -10.79 C
1637 02-03-2018 00:00:00 -2.40208 C 62.9826 % -8.48 C
1638 03-03-2018 00:00:00 -0.40937 C 89.6736 % -1.89 C
1639 04-03-2018 00:00:00 4.02986 C 90.9965 % 2.7 C
1640 05-03-2018 00:00:00 5.96979 C 85.9965 % 3.81 C
1641 06-03-2018 00:00:00 4.90694 C 86.9583 % 2.92 C
1642 07-03-2018 00:00:00 5.39792 C 90.0556 % 3.9 C
1643 08-03-2018 00:00:00 6.19653 C 83.8368 % 3.67 C
1644 09-03-2018 00:00:00 5.56528 C 93.9514 % 4.67 C
1645 10-03-2018 00:00:00 10.03125 C 92.4792 % 8.87 C
1646 11-03-2018 00:00:00 10.51493 C 91.3854 % 9.17 C
1647 12-03-2018 00:00:00 9.7 C 90.2813 % 8.19 C
1648 13-03-2018 00:00:00 7.76667 C 88.1215 % 5.93 C
1649 14-03-2018 00:00:00 6.86458 C 83.6076 % 4.29 C
1650 15-03-2018 00:00:00 6.40382 C 83.6319 % 3.84 C
Sensor: Nr:Datum:Temp:Feuchte:Taupunkt:
Aussen-T/F 1651 16-03-2018 00:00:00 7.64097 C 94.7813 % 6.86 C
1652 17-03-2018 00:00:00 -0.44516 C 83.0573 % -2.96 C
1653 18-03-2018 00:00:00 -1.64028 C 75.3299 % -5.42 C
1654 19-03-2018 00:00:00 -0.54479 C 65.7778 % -6.15 C
1655 20-03-2018 00:00:00 0.29653 C 73.5035 % -3.87 C
1656 21-03-2018 00:00:00 1.2059 C 76.4132 % -2.47 C
1657 22-03-2018 00:00:00 3.06319 C 89.6667 % 1.54 C
1658 23-03-2018 00:00:00 6.14028 C 89.0799 % 4.48 C
1659 24-03-2018 00:00:00 5.20069 C 79.8715 % 2.02 C
1660 25-03-2018 00:00:00 5.42862 C 76.5217 % 1.64 C
1661 26-03-2018 00:00:00 7.61146 C 73.0313 % 3.1 C
1662 27-03-2018 00:00:00 5.82222 C 83.6181 % 3.27 C
1663 28-03-2018 00:00:00 8.50799 C 92.0278 % 7.29 C
1664 29-03-2018 00:00:00 7.11424 C 75.6701 % 3.12 C
1665 30-03-2018 00:00:00 6.82813 C 81.6910 % 3.92 C
1666 31-03-2018 00:00:00 8.09792 C 78.7083 % 4.63 C
1667 01-04-2018 00:00:00 7.66979 C 81.5451 % 4.72 C
1668 02-04-2018 00:00:00 8.78611 C 74.8715 % 4.58 C
1669 03-04-2018 00:00:00 13.35 C 67.7257 % 7.51 C
1670 04-04-2018 00:00:00 11.17187 C 85.0486 % 8.76 C
1671 05-04-2018 00:00:00 8.16042 C 84.2049 % 5.66 C
1672 06-04-2018 00:00:00 6.97187 C 72.9167 % 2.46 C
1673 07-04-2018 00:00:00 12.50035 C 66.5174 % 6.44 C
1674 08-04-2018 00:00:00 14.90417 C 67.3368 % 8.91 C
1675 09-04-2018 00:00:00 13.73333 C 72.7188 % 8.93 C
Sensor: Nr:Datum:Temp:Feuchte:Taupunkt:
Aussen-T/F 1676 10-04-2018 00:00:00 13.3816 C 78.1875 % 9.66 C
1677 11-04-2018 00:00:00 11.50035 C 87.5035 % 9.5 C
1678 12-04-2018 00:00:00 13.06493 C 80.5000 % 9.79 C
1679 13-04-2018 00:00:00 10.32188 C 88.1458 % 8.45 C
1680 14-04-2018 00:00:00 13.08403 C 76.3056 % 9.01 C
1681 15-04-2018 00:00:00 14.37465 C 81.8542 % 11.32 C
1682 16-04-2018 00:00:00 13.42882 C 78.5417 % 9.78 C
1683 17-04-2018 00:00:00 13.72569 C 74.7569 % 9.33 C
1684 18-04-2018 00:00:00 15.73264 C 69.7882 % 10.23 C
1685 19-04-2018 00:00:00 17.21806 C 66.2847 % 10.88 C
1686 20-04-2018 00:00:00 17.08681 C 67.8229 % 11.1 C
1687 21-04-2018 00:00:00 18.09931 C 71.2639 % 12.82 C
1688 22-04-2018 00:00:00 18.53681 C 73.1042 % 13.63 C
1689 23-04-2018 00:00:00 18.01181 C 70.6181 % 12.6 C
1690 24-04-2018 00:00:00 14.03854 C 72.5938 % 9.2 C
1691 25-04-2018 00:00:00 13.47917 C 75.5694 % 9.25 C
1692 26-04-2018 00:00:00 11.09167 C 65.0868 % 4.79 C
1693 27-04-2018 00:00:00 11.96181 C 67.8333 % 6.21 C
1694 28-04-2018 00:00:00 12.62917 C 72.8854 % 7.9 C
1695 29-04-2018 00:00:00 14.24792 C 85.8194 % 11.91 C
1696 30-04-2018 00:00:00 13.44931 C 77.7604 % 9.65 C
1697 01-05-2018 00:00:00 9.59063 C 69.6354 % 4.32 C
1698 02-05-2018 00:00:00 9.44549 C 75.6910 % 5.38 C
1699 03-05-2018 00:00:00 12.35347 C 68.5729 % 6.74 C
1700 04-05-2018 00:00:00 13.14618 C 65.4722 % 6.83 C
Sensor: Nr:Datum:Temp:Feuchte:Taupunkt:
Aussen-T/F 1701 05-05-2018 00:00:00 15.50764 C 61.2708 % 8.09 C
1702 06-05-2018 00:00:00 17.0059 C 57.6563 % 8.6 C
1703 07-05-2018 00:00:00 17.60312 C 61.7674 % 10.19 C
1704 08-05-2018 00:00:00 18.08264 C 62.5556 % 10.83 C
1705 09-05-2018 00:00:00 17.125 C 71.3160 % 11.89 C
1706 10-05-2018 00:00:00 14.09271 C 87.0729 % 11.98 C
1707 11-05-2018 00:00:00 14.47951 C 77.2778 % 10.55 C
1708 12-05-2018 00:00:00 16.39236 C 75.1597 % 11.99 C
1709 13-05-2018 00:00:00 14.62278 C 93.1317 % 13.53 C
1710 14-05-2018 00:00:00 16.77361 C 89.0556 % 14.96 C
1711 15-05-2018 00:00:00 15.91597 C 75.1875 % 11.53 C
1712 16-05-2018 00:00:00 15.4941 C 83.2118 % 12.66 C
1713 17-05-2018 00:00:00 13.78333 C 73.6285 % 9.16 C
1714 18-05-2018 00:00:00 12.14792 C 74.4757 % 7.75 C
1715 19-05-2018 00:00:00 13.63299 C 73.7118 % 9.03 C
1716 20-05-2018 00:00:00 14.00278 C 84.2917 % 11.4 C
1717 21-05-2018 00:00:00 17.43819 C 78.1806 % 13.6 C
1718 22-05-2018 00:00:00 16.97917 C 82.6944 % 14.02 C
1719 23-05-2018 00:00:00 17.30243 C 88.5104 % 15.39 C
1720 24-05-2018 00:00:00 17.125 C 87.8507 % 15.1 C
1721 25-05-2018 00:00:00 19.81944 C 80.2535 % 16.32 C
1722 26-05-2018 00:00:00 20.84826 C 76.3958 % 16.54 C
1723 27-05-2018 00:00:00 20.3191 C 81.4236 % 17.03 C
1724 28-05-2018 00:00:00 21.47083 C 81.6424 % 18.2 C
1725 29-05-2018 00:00:00 20.77292 C 85.9514 % 18.34 C
Sensor: Nr:Datum:Temp:Feuchte:Taupunkt:
Aussen-T/F 1726 30-05-2018 00:00:00 21.53403 C 77.5799 % 17.45 C
1727 31-05-2018 00:00:00 22.62083 C 74.5313 % 17.86 C
1728 01-06-2018 00:00:00 19.10729 C 88.6667 % 17.19 C
1729 02-06-2018 00:00:00 19.22917 C 81.5243 % 15.99 C
1730 03-06-2018 00:00:00 19.42708 C 77.5903 % 15.41 C
1731 04-06-2018 00:00:00 20.95938 C 74.2257 % 16.2 C
1732 05-06-2018 00:00:00 20.70035 C 77.2569 % 16.58 C
1733 06-06-2018 00:00:00 21.09375 C 74.2222 % 16.33 C
1734 07-06-2018 00:00:00 21.15174 C 80.5868 % 17.68 C
1735 08-06-2018 00:00:00 20.94375 C 84.2361 % 18.18 C
1736 09-06-2018 00:00:00 21.9125 C 83.9896 % 19.08 C
1737 10-06-2018 00:00:00 21.38239 C 86.1831 % 18.98 C
1738 11-06-2018 00:00:00 19.19444 C 93.4549 % 18.11 C
1739 12-06-2018 00:00:00 16.41979 C 90.3194 % 14.83 C
1740 13-06-2018 00:00:00 14.8941 C 79.6285 % 11.41 C
1741 14-06-2018 00:00:00 14.94132 C 80.6806 % 11.65 C
1742 15-06-2018 00:00:00 17.84236 C 88.0243 % 15.83 C
1743 16-06-2018 00:00:00 19.99306 C 78.6493 % 16.17 C
1744 17-06-2018 00:00:00 17.94167 C 75.1979 % 13.49 C
1745 18-06-2018 00:00:00 17.81667 C 77.9757 % 13.93 C
1746 19-06-2018 00:00:00 18.89201 C 84.5799 % 16.24 C
1747 20-06-2018 00:00:00 23.07639 C 72.0069 % 17.75 C
1748 21-06-2018 00:00:00 17.92639 C 69.4514 % 12.26 C
1749 22-06-2018 00:00:00 13.74097 C 68.4549 % 8.04 C
1750 23-06-2018 00:00:00 13.76424 C 76.4514 % 9.7 C
Sensor: Nr:Datum:Temp:Feuchte:Taupunkt:
Aussen-T/F 1751 24-06-2018 00:00:00 15.88264 C 72.8299 % 11.02 C
1752 25-06-2018 00:00:00 17.09201 C 78.1806 % 13.26 C
1753 26-06-2018 00:00:00 17.67396 C 74.6806 % 13.13 C
1754 27-06-2018 00:00:00 19.15694 C 67.6979 % 13.05 C
1755 28-06-2018 00:00:00 20.71076 C 61.1806 % 12.97 C
1756 29-06-2018 00:00:00 24.11424 C 56.0451 % 14.8 C
1757 30-06-2018 00:00:00 22.06215 C 56.9201 % 13.13 C
1758 01-07-2018 00:00:00 20.86597 C 42.7396 % 7.74 C
1759 02-07-2018 00:00:00 20.44792 C 45.9861 % 8.44 C
1760 03-07-2018 00:00:00 20.73299 C 50.1319 % 9.98 C
1761 04-07-2018 00:00:00 18.84167 C 80.7778 % 15.47 C
1762 05-07-2018 00:00:00 19.41111 C 88.5799 % 17.48 C
1763 06-07-2018 00:00:00 20.03056 C 75.7014 % 15.61 C
1764 07-07-2018 00:00:00 20.66701 C 67.2326 % 14.38 C
1765 08-07-2018 00:00:00 19.71181 C 58.3160 % 11.3 C
1766 09-07-2018 00:00:00 19.32361 C 67.3299 % 13.12 C
1767 10-07-2018 00:00:00 17.13715 C 73.0729 % 12.28 C
1768 11-07-2018 00:00:00 16.10729 C 82.2396 % 13.08 C
1769 12-07-2018 00:00:00 19.59688 C 80.3924 % 16.13 C
1770 13-07-2018 00:00:00 19.71166 C 77.4240 % 15.65 C
1771 14-07-2018 00:00:00 21.51493 C 67.9236 % 15.34 C
1772 15-07-2018 00:00:00 21.63021 C 64.0521 % 14.54 C
1773 16-07-2018 00:00:00 22.30868 C 61.5347 % 14.56 C
1774 17-07-2018 00:00:00 21.01771 C 65.8507 % 14.39 C
1775 18-07-2018 00:00:00 20.29479 C 65.8750 % 13.71 C
Sensor: Nr:Datum:Temp:Feuchte:Taupunkt:
Aussen-T/F 1776 19-07-2018 00:00:00 20.92431 C 60.5069 % 13 C
1777 20-07-2018 00:00:00 21.5559 C 61.6319 % 13.88 C
1778 21-07-2018 00:00:00 20.6125 C 77.3958 % 16.52 C
1779 22-07-2018 00:00:00 21.61458 C 70.0486 % 15.92 C
1780 23-07-2018 00:00:00 22.37917 C 67.0868 % 15.97 C
1781 24-07-2018 00:00:00 23.70278 C 63.7465 % 16.43 C
1782 25-07-2018 00:00:00 25.50069 C 57.3160 % 16.44 C
1783 26-07-2018 00:00:00 27.18785 C 54.2326 % 17.14 C
1784 27-07-2018 00:00:00 26.11146 C 50.4861 % 15.03 C
1785 28-07-2018 00:00:00 21.97743 C 76.3924 % 17.63 C
1786 29-07-2018 00:00:00 23.50521 C 66.0451 % 16.8 C
1787 30-07-2018 00:00:00 24.29931 C 64.4410 % 17.16 C
1788 31-07-2018 00:00:00 25.46875 C 61.9722 % 17.65 C
1789 01-08-2018 00:00:00 20.74271 C 87.4931 % 18.59 C
1790 02-08-2018 00:00:00 23.73056 C 74.2257 % 18.87 C
1791 03-08-2018 00:00:00 26.4684 C 61.0278 % 18.34 C
1792 04-08-2018 00:00:00 26.38714 C 57.9821 % 17.45 C
1793 05-08-2018 00:00:00 24.70486 C 59.6424 % 16.32 C
1794 06-08-2018 00:00:00 24.16944 C 57.6563 % 15.29 C
1795 07-08-2018 00:00:00 26.73646 C 55.5104 % 17.09 C
1796 08-08-2018 00:00:00 25.29618 C 61.3021 % 17.31 C
1797 09-08-2018 00:00:00 20.57778 C 82.7639 % 17.54 C
1798 10-08-2018 00:00:00 18.35486 C 65.3924 % 11.76 C
1799 11-08-2018 00:00:00 18.37083 C 59.8611 % 10.44 C
1800 12-08-2018 00:00:00 18.15451 C 63.0729 % 11.02 C
Sensor: Nr:Datum:Temp:Feuchte:Taupunkt:
Aussen-T/F 1801 13-08-2018 00:00:00 17.68854 C 81.8924 % 14.56 C
1802 14-08-2018 00:00:00 18.53958 C 84.6563 % 15.91 C
1803 15-08-2018 00:00:00 19.375 C 79.2465 % 15.69 C
1804 16-08-2018 00:00:00 20.74444 C 71.2743 % 15.36 C
1805 17-08-2018 00:00:00 19.75903 C 76.6632 % 15.54 C
1806 18-08-2018 00:00:00 18.88785 C 68.7326 % 13.02 C
1807 19-08-2018 00:00:00 20.30521 C 67.4132 % 14.07 C
1808 20-08-2018 00:00:00 20.84444 C 73.5938 % 15.95 C
1809 21-08-2018 00:00:00 21.96979 C 70.6528 % 16.39 C
1810 22-08-2018 00:00:00 23.24757 C 65.7500 % 16.48 C
1811 23-08-2018 00:00:00 22.88681 C 69.0660 % 16.91 C
1812 24-08-2018 00:00:00 19.03368 C 65.5556 % 12.44 C
1813 25-08-2018 00:00:00 14.525 C 69.8438 % 9.09 C
1814 26-08-2018 00:00:00 13.80556 C 67.7882 % 7.96 C
1815 27-08-2018 00:00:00 18.12604 C 70.1493 % 12.6 C
1816 28-08-2018 00:00:00 18.12917 C 67.6632 % 12.06 C
1817 29-08-2018 00:00:00 17.15556 C 80.1528 % 13.71 C
1818 30-08-2018 00:00:00 17.22778 C 75.0799 % 12.78 C
1819 31-08-2018 00:00:00 15.05521 C 72.2951 % 10.11 C
1820 01-09-2018 00:00:00 14.30833 C 69.0799 % 8.72 C
1821 02-09-2018 00:00:00 14.27188 C 76.5347 % 10.21 C
1822 03-09-2018 00:00:00 18.05417 C 80.5556 % 14.66 C
1823 04-09-2018 00:00:00 20.01736 C 79.3507 % 16.33 C
1824 05-09-2018 00:00:00 20.91701 C 73.3229 % 15.97 C
1825 06-09-2018 00:00:00 18.07014 C 87.7049 % 16 C
Sensor: Nr:Datum:Temp:Feuchte:Taupunkt:
Aussen-T/F 1826 07-09-2018 00:00:00 15.72639 C 86.9479 % 13.56 C

Maximal/Minimal-Werte vom 08.09.2013 - 07.09.2018

Sensor Min Max Avg
Temp
(Aussen-T/F)
-10.6 °C
22-01-2017  07:55:00
38.6 °C
04-07-2015  16:30:00
11.3 °C
Feuchte
(Aussen-T/F)
18 %
17-07-2015  15:55:00
100 %
11-09-2013  17:00:00
83.28 %
Taupunkt
(Aussen-T/F)
-11.99 C
28-02-2018  00:00:00
21.29 C
04-07-2015  00:00:00
8.41 C

Die Daten stammen von einer Davis Vantage Pro 2 Wetter-Station und werden unter Linux mit der Software wview2wettercgi und aufbereitet. Alle Angaben erfolgen ohne Gewähr für ihre Vollständigkeit oder Richtigkeit.
Kontakt: Rainer Krienke krienke@uni-koblenz.de . Meine Webseiten an der Uni Koblenz oder privat.
Version: $Revision: 0.78 $